<?xml version="1.0" encoding="UTF-8" standalone="no" ?>
<gpx xmlns="http://www.topografix.com/GPX/1/1" xmlns:xsi="http://www.w3.org/2001/XMLSchema-instance" xsi:schemaLocation="http://www.topografix.com/GPX/1/1 http://www.topografix.com/GPX/1/1/gpx.xsd" version="1.1" creator="VisuGPX - https://www.visugpx.com">
  <metadata>
    <name>La Croix des Brosses (Mont du Lyonnais)</name>
    <desc><![CDATA[Très belle randonnée de 4h environ, au départ de Montromant, proche de Ste-Foy-l'Argentière
]]></desc>
  </metadata>
  <trk>
    <name><![CDATA[ACTIVE LOG 002]]></name>
    <trkseg>
      <trkpt lat="45.70876" lon="4.52457">
        <ele>390.4326171875</ele>
        <time>2020-01-19T10:19:14Z</time>
      </trkpt>
      <trkpt lat="45.70877" lon="4.52461">
        <ele>390.4326171875</ele>
        <time>2020-01-19T10:19:16Z</time>
      </trkpt>
      <trkpt lat="45.70856" lon="4.52506">
        <ele>390.4326171875</ele>
        <time>2020-01-19T10:19:43Z</time>
      </trkpt>
      <trkpt lat="45.70854" lon="4.52534">
        <ele>392.8359375</ele>
        <time>2020-01-19T10:20:03Z</time>
      </trkpt>
      <trkpt lat="45.7084" lon="4.52556">
        <ele>397.16174316406</ele>
        <time>2020-01-19T10:20:24Z</time>
      </trkpt>
      <trkpt lat="45.70828" lon="4.52567">
        <ele>397.16174316406</ele>
        <time>2020-01-19T10:20:37Z</time>
      </trkpt>
      <trkpt lat="45.70829" lon="4.52579">
        <ele>397.16174316406</ele>
        <time>2020-01-19T10:20:50Z</time>
      </trkpt>
      <trkpt lat="45.70825" lon="4.52574">
        <ele>396.68115234375</ele>
        <time>2020-01-19T10:21:01Z</time>
      </trkpt>
      <trkpt lat="45.70829" lon="4.52564">
        <ele>397.16174316406</ele>
        <time>2020-01-19T10:21:15Z</time>
      </trkpt>
      <trkpt lat="45.70828" lon="4.52564">
        <ele>398.12316894531</ele>
        <time>2020-01-19T10:21:17Z</time>
      </trkpt>
      <trkpt lat="45.70818" lon="4.52565">
        <ele>400.52648925781</ele>
        <time>2020-01-19T10:21:26Z</time>
      </trkpt>
      <trkpt lat="45.70813" lon="4.52564">
        <ele>402.9296875</ele>
        <time>2020-01-19T10:21:30Z</time>
      </trkpt>
      <trkpt lat="45.70794" lon="4.52571">
        <ele>406.29431152344</ele>
        <time>2020-01-19T10:21:46Z</time>
      </trkpt>
      <trkpt lat="45.70796" lon="4.52569">
        <ele>406.77490234375</ele>
        <time>2020-01-19T10:21:48Z</time>
      </trkpt>
      <trkpt lat="45.70797" lon="4.52578">
        <ele>409.65905761719</ele>
        <time>2020-01-19T10:22:02Z</time>
      </trkpt>
      <trkpt lat="45.70794" lon="4.52582">
        <ele>408.21704101562</ele>
        <time>2020-01-19T10:22:13Z</time>
      </trkpt>
      <trkpt lat="45.70791" lon="4.52576">
        <ele>405.3330078125</ele>
        <time>2020-01-19T10:22:19Z</time>
      </trkpt>
      <trkpt lat="45.70782" lon="4.52551">
        <ele>404.37170410156</ele>
        <time>2020-01-19T10:22:39Z</time>
      </trkpt>
      <trkpt lat="45.70756" lon="4.52531">
        <ele>405.3330078125</ele>
        <time>2020-01-19T10:22:57Z</time>
      </trkpt>
      <trkpt lat="45.7073" lon="4.5251">
        <ele>403.89111328125</ele>
        <time>2020-01-19T10:23:16Z</time>
      </trkpt>
      <trkpt lat="45.70711" lon="4.52497">
        <ele>405.81372070312</ele>
        <time>2020-01-19T10:23:33Z</time>
      </trkpt>
      <trkpt lat="45.70686" lon="4.52496">
        <ele>406.29431152344</ele>
        <time>2020-01-19T10:23:50Z</time>
      </trkpt>
      <trkpt lat="45.70673" lon="4.52487">
        <ele>407.736328125</ele>
        <time>2020-01-19T10:24:05Z</time>
      </trkpt>
      <trkpt lat="45.70652" lon="4.52494">
        <ele>410.62023925781</ele>
        <time>2020-01-19T10:24:20Z</time>
      </trkpt>
      <trkpt lat="45.70642" lon="4.52506">
        <ele>413.98486328125</ele>
        <time>2020-01-19T10:24:33Z</time>
      </trkpt>
      <trkpt lat="45.70632" lon="4.52516">
        <ele>417.349609375</ele>
        <time>2020-01-19T10:24:46Z</time>
      </trkpt>
      <trkpt lat="45.70624" lon="4.52528">
        <ele>420.2333984375</ele>
        <time>2020-01-19T10:24:58Z</time>
      </trkpt>
      <trkpt lat="45.70617" lon="4.52534">
        <ele>422.63671875</ele>
        <time>2020-01-19T10:25:07Z</time>
      </trkpt>
      <trkpt lat="45.7061" lon="4.52543">
        <ele>426.00134277344</ele>
        <time>2020-01-19T10:25:19Z</time>
      </trkpt>
      <trkpt lat="45.70601" lon="4.52554">
        <ele>429.36596679688</ele>
        <time>2020-01-19T10:25:32Z</time>
      </trkpt>
      <trkpt lat="45.70598" lon="4.52562">
        <ele>430.80798339844</ele>
        <time>2020-01-19T10:25:40Z</time>
      </trkpt>
      <trkpt lat="45.70595" lon="4.52576">
        <ele>438.01782226562</ele>
        <time>2020-01-19T10:25:52Z</time>
      </trkpt>
      <trkpt lat="45.70595" lon="4.52577">
        <ele>443.30505371094</ele>
        <time>2020-01-19T10:25:53Z</time>
      </trkpt>
      <trkpt lat="45.70595" lon="4.52578">
        <ele>448.59240722656</ele>
        <time>2020-01-19T10:25:54Z</time>
      </trkpt>
      <trkpt lat="45.70595" lon="4.52579">
        <ele>452.91821289062</ele>
        <time>2020-01-19T10:25:55Z</time>
      </trkpt>
      <trkpt lat="45.70595" lon="4.5258">
        <ele>457.72497558594</ele>
        <time>2020-01-19T10:25:56Z</time>
      </trkpt>
      <trkpt lat="45.70595" lon="4.52581">
        <ele>462.53137207031</ele>
        <time>2020-01-19T10:25:57Z</time>
      </trkpt>
      <trkpt lat="45.70595" lon="4.52582">
        <ele>466.857421875</ele>
        <time>2020-01-19T10:25:58Z</time>
      </trkpt>
      <trkpt lat="45.70596" lon="4.52583">
        <ele>470.22192382812</ele>
        <time>2020-01-19T10:25:59Z</time>
      </trkpt>
      <trkpt lat="45.70596" lon="4.52584">
        <ele>474.54797363281</ele>
        <time>2020-01-19T10:26:00Z</time>
      </trkpt>
      <trkpt lat="45.70596" lon="4.52585">
        <ele>479.3544921875</ele>
        <time>2020-01-19T10:26:01Z</time>
      </trkpt>
      <trkpt lat="45.70596" lon="4.52587">
        <ele>482.23852539062</ele>
        <time>2020-01-19T10:26:02Z</time>
      </trkpt>
      <trkpt lat="45.70596" lon="4.52587">
        <ele>486.08374023438</ele>
        <time>2020-01-19T10:26:03Z</time>
      </trkpt>
      <trkpt lat="45.70597" lon="4.52588">
        <ele>489.44836425781</ele>
        <time>2020-01-19T10:26:04Z</time>
      </trkpt>
      <trkpt lat="45.70597" lon="4.52589">
        <ele>493.77429199219</ele>
        <time>2020-01-19T10:26:05Z</time>
      </trkpt>
      <trkpt lat="45.70598" lon="4.5259">
        <ele>496.65832519531</ele>
        <time>2020-01-19T10:26:06Z</time>
      </trkpt>
      <trkpt lat="45.70599" lon="4.52592">
        <ele>503.38745117188</ele>
        <time>2020-01-19T10:26:08Z</time>
      </trkpt>
      <trkpt lat="45.70602" lon="4.52595">
        <ele>512.52001953125</ele>
        <time>2020-01-19T10:26:11Z</time>
      </trkpt>
      <trkpt lat="45.70602" lon="4.52596">
        <ele>515.40405273438</ele>
        <time>2020-01-19T10:26:12Z</time>
      </trkpt>
      <trkpt lat="45.70603" lon="4.52598">
        <ele>520.69128417969</ele>
        <time>2020-01-19T10:26:14Z</time>
      </trkpt>
      <trkpt lat="45.70603" lon="4.526">
        <ele>525.01721191406</ele>
        <time>2020-01-19T10:26:16Z</time>
      </trkpt>
      <trkpt lat="45.70604" lon="4.52601">
        <ele>529.82373046875</ele>
        <time>2020-01-19T10:26:18Z</time>
      </trkpt>
      <trkpt lat="45.70605" lon="4.52603">
        <ele>534.14965820312</ele>
        <time>2020-01-19T10:26:20Z</time>
      </trkpt>
      <trkpt lat="45.70606" lon="4.52605">
        <ele>538.47570800781</ele>
        <time>2020-01-19T10:26:22Z</time>
      </trkpt>
      <trkpt lat="45.70607" lon="4.52608">
        <ele>542.32092285156</ele>
        <time>2020-01-19T10:26:24Z</time>
      </trkpt>
      <trkpt lat="45.70608" lon="4.5261">
        <ele>545.685546875</ele>
        <time>2020-01-19T10:26:26Z</time>
      </trkpt>
      <trkpt lat="45.70609" lon="4.52612">
        <ele>549.53076171875</ele>
        <time>2020-01-19T10:26:28Z</time>
      </trkpt>
      <trkpt lat="45.7061" lon="4.52614">
        <ele>552.89526367188</ele>
        <time>2020-01-19T10:26:30Z</time>
      </trkpt>
      <trkpt lat="45.7061" lon="4.52616">
        <ele>557.22143554688</ele>
        <time>2020-01-19T10:26:33Z</time>
      </trkpt>
      <trkpt lat="45.70612" lon="4.52618">
        <ele>562.02807617188</ele>
        <time>2020-01-19T10:26:36Z</time>
      </trkpt>
      <trkpt lat="45.70613" lon="4.52622">
        <ele>566.35375976562</ele>
        <time>2020-01-19T10:26:39Z</time>
      </trkpt>
      <trkpt lat="45.70614" lon="4.52625">
        <ele>570.19897460938</ele>
        <time>2020-01-19T10:26:43Z</time>
      </trkpt>
      <trkpt lat="45.70614" lon="4.52626">
        <ele>573.08325195312</ele>
        <time>2020-01-19T10:26:46Z</time>
      </trkpt>
      <trkpt lat="45.70614" lon="4.52626">
        <ele>576.92846679688</ele>
        <time>2020-01-19T10:26:50Z</time>
      </trkpt>
      <trkpt lat="45.70614" lon="4.52626">
        <ele>576.92846679688</ele>
        <time>2020-01-19T10:26:51Z</time>
      </trkpt>
      <trkpt lat="45.70611" lon="4.52623">
        <ele>580.29296875</ele>
        <time>2020-01-19T10:26:57Z</time>
      </trkpt>
      <trkpt lat="45.70611" lon="4.52623">
        <ele>580.77368164062</ele>
        <time>2020-01-19T10:26:58Z</time>
      </trkpt>
      <trkpt lat="45.70612" lon="4.52632">
        <ele>583.65747070312</ele>
        <time>2020-01-19T10:27:04Z</time>
      </trkpt>
      <trkpt lat="45.70612" lon="4.5264">
        <ele>587.9833984375</ele>
        <time>2020-01-19T10:27:09Z</time>
      </trkpt>
      <trkpt lat="45.7061" lon="4.52651">
        <ele>590.86743164062</ele>
        <time>2020-01-19T10:27:16Z</time>
      </trkpt>
      <trkpt lat="45.70608" lon="4.52658">
        <ele>593.75146484375</ele>
        <time>2020-01-19T10:27:22Z</time>
      </trkpt>
      <trkpt lat="45.70603" lon="4.52679">
        <ele>597.5966796875</ele>
        <time>2020-01-19T10:27:38Z</time>
      </trkpt>
      <trkpt lat="45.70594" lon="4.52699">
        <ele>599.03857421875</ele>
        <time>2020-01-19T10:27:53Z</time>
      </trkpt>
      <trkpt lat="45.7058" lon="4.52718">
        <ele>601.44189453125</ele>
        <time>2020-01-19T10:28:09Z</time>
      </trkpt>
      <trkpt lat="45.70574" lon="4.52723">
        <ele>602.40307617188</ele>
        <time>2020-01-19T10:28:17Z</time>
      </trkpt>
      <trkpt lat="45.70553" lon="4.52733">
        <ele>605.28735351562</ele>
        <time>2020-01-19T10:28:36Z</time>
      </trkpt>
      <trkpt lat="45.70536" lon="4.52746">
        <ele>606.72924804688</ele>
        <time>2020-01-19T10:28:53Z</time>
      </trkpt>
      <trkpt lat="45.70515" lon="4.52759">
        <ele>607.2099609375</ele>
        <time>2020-01-19T10:29:10Z</time>
      </trkpt>
      <trkpt lat="45.70488" lon="4.52774">
        <ele>606.24853515625</ele>
        <time>2020-01-19T10:29:32Z</time>
      </trkpt>
      <trkpt lat="45.70482" lon="4.52779">
        <ele>606.24853515625</ele>
        <time>2020-01-19T10:29:41Z</time>
      </trkpt>
      <trkpt lat="45.70456" lon="4.52798">
        <ele>607.69067382812</ele>
        <time>2020-01-19T10:30:00Z</time>
      </trkpt>
      <trkpt lat="45.70433" lon="4.52817">
        <ele>609.61328125</ele>
        <time>2020-01-19T10:30:20Z</time>
      </trkpt>
      <trkpt lat="45.70431" lon="4.5282">
        <ele>610.09375</ele>
        <time>2020-01-19T10:30:23Z</time>
      </trkpt>
      <trkpt lat="45.70428" lon="4.52823">
        <ele>609.61328125</ele>
        <time>2020-01-19T10:30:25Z</time>
      </trkpt>
      <trkpt lat="45.70411" lon="4.52834">
        <ele>608.65185546875</ele>
        <time>2020-01-19T10:30:41Z</time>
      </trkpt>
      <trkpt lat="45.70385" lon="4.5286">
        <ele>609.61328125</ele>
        <time>2020-01-19T10:30:59Z</time>
      </trkpt>
      <trkpt lat="45.7037" lon="4.52882">
        <ele>611.05517578125</ele>
        <time>2020-01-19T10:31:16Z</time>
      </trkpt>
      <trkpt lat="45.70359" lon="4.52907">
        <ele>612.0166015625</ele>
        <time>2020-01-19T10:31:32Z</time>
      </trkpt>
      <trkpt lat="45.70353" lon="4.52926">
        <ele>612.97778320312</ele>
        <time>2020-01-19T10:31:48Z</time>
      </trkpt>
      <trkpt lat="45.70344" lon="4.52953">
        <ele>611.53588867188</ele>
        <time>2020-01-19T10:32:05Z</time>
      </trkpt>
      <trkpt lat="45.70341" lon="4.52975">
        <ele>609.61328125</ele>
        <time>2020-01-19T10:32:22Z</time>
      </trkpt>
      <trkpt lat="45.70341" lon="4.52993">
        <ele>609.13256835938</ele>
        <time>2020-01-19T10:32:36Z</time>
      </trkpt>
      <trkpt lat="45.70334" lon="4.53005">
        <ele>610.09375</ele>
        <time>2020-01-19T10:32:53Z</time>
      </trkpt>
      <trkpt lat="45.70334" lon="4.52995">
        <ele>611.05517578125</ele>
        <time>2020-01-19T10:33:04Z</time>
      </trkpt>
      <trkpt lat="45.70326" lon="4.53007">
        <ele>610.09375</ele>
        <time>2020-01-19T10:33:43Z</time>
      </trkpt>
      <trkpt lat="45.70329" lon="4.53004">
        <ele>610.09375</ele>
        <time>2020-01-19T10:34:03Z</time>
      </trkpt>
      <trkpt lat="45.70333" lon="4.52997">
        <ele>611.53588867188</ele>
        <time>2020-01-19T10:34:23Z</time>
      </trkpt>
      <trkpt lat="45.70339" lon="4.52992">
        <ele>612.0166015625</ele>
        <time>2020-01-19T10:34:31Z</time>
      </trkpt>
      <trkpt lat="45.70342" lon="4.53">
        <ele>610.09375</ele>
        <time>2020-01-19T10:34:46Z</time>
      </trkpt>
      <trkpt lat="45.70336" lon="4.53015">
        <ele>613.45849609375</ele>
        <time>2020-01-19T10:35:01Z</time>
      </trkpt>
      <trkpt lat="45.70337" lon="4.53008">
        <ele>611.05517578125</ele>
        <time>2020-01-19T10:35:15Z</time>
      </trkpt>
      <trkpt lat="45.7034" lon="4.53004">
        <ele>610.57446289062</ele>
        <time>2020-01-19T10:35:19Z</time>
      </trkpt>
      <trkpt lat="45.70336" lon="4.5299">
        <ele>609.13256835938</ele>
        <time>2020-01-19T10:35:32Z</time>
      </trkpt>
      <trkpt lat="45.70333" lon="4.52983">
        <ele>612.0166015625</ele>
        <time>2020-01-19T10:35:44Z</time>
      </trkpt>
      <trkpt lat="45.70334" lon="4.52976">
        <ele>614.41967773438</ele>
        <time>2020-01-19T10:35:56Z</time>
      </trkpt>
      <trkpt lat="45.70325" lon="4.5297">
        <ele>615.86181640625</ele>
        <time>2020-01-19T10:36:12Z</time>
      </trkpt>
      <trkpt lat="45.70321" lon="4.52964">
        <ele>617.7841796875</ele>
        <time>2020-01-19T10:36:29Z</time>
      </trkpt>
      <trkpt lat="45.70313" lon="4.52961">
        <ele>620.66845703125</ele>
        <time>2020-01-19T10:36:40Z</time>
      </trkpt>
      <trkpt lat="45.70298" lon="4.5296">
        <ele>624.03295898438</ele>
        <time>2020-01-19T10:36:58Z</time>
      </trkpt>
      <trkpt lat="45.70291" lon="4.52954">
        <ele>625.95556640625</ele>
        <time>2020-01-19T10:37:13Z</time>
      </trkpt>
      <trkpt lat="45.70284" lon="4.52953">
        <ele>626.9169921875</ele>
        <time>2020-01-19T10:37:19Z</time>
      </trkpt>
      <trkpt lat="45.70269" lon="4.52954">
        <ele>629.80078125</ele>
        <time>2020-01-19T10:37:33Z</time>
      </trkpt>
      <trkpt lat="45.7026" lon="4.52953">
        <ele>633.16528320312</ele>
        <time>2020-01-19T10:37:48Z</time>
      </trkpt>
      <trkpt lat="45.70257" lon="4.52953">
        <ele>633.16528320312</ele>
        <time>2020-01-19T10:37:50Z</time>
      </trkpt>
      <trkpt lat="45.70249" lon="4.52946">
        <ele>635.56860351562</ele>
        <time>2020-01-19T10:38:04Z</time>
      </trkpt>
      <trkpt lat="45.70244" lon="4.52943">
        <ele>637.49145507812</ele>
        <time>2020-01-19T10:38:11Z</time>
      </trkpt>
      <trkpt lat="45.70224" lon="4.52942">
        <ele>639.89477539062</ele>
        <time>2020-01-19T10:38:28Z</time>
      </trkpt>
      <trkpt lat="45.70218" lon="4.52934">
        <ele>643.25927734375</ele>
        <time>2020-01-19T10:38:41Z</time>
      </trkpt>
      <trkpt lat="45.70212" lon="4.52932">
        <ele>645.18188476562</ele>
        <time>2020-01-19T10:38:50Z</time>
      </trkpt>
      <trkpt lat="45.702" lon="4.52936">
        <ele>647.1044921875</ele>
        <time>2020-01-19T10:39:09Z</time>
      </trkpt>
      <trkpt lat="45.70201" lon="4.52948">
        <ele>649.5078125</ele>
        <time>2020-01-19T10:39:25Z</time>
      </trkpt>
      <trkpt lat="45.70201" lon="4.52951">
        <ele>650.46923828125</ele>
        <time>2020-01-19T10:39:29Z</time>
      </trkpt>
      <trkpt lat="45.70201" lon="4.52962">
        <ele>653.833984375</ele>
        <time>2020-01-19T10:39:43Z</time>
      </trkpt>
      <trkpt lat="45.70206" lon="4.52966">
        <ele>654.31469726562</ele>
        <time>2020-01-19T10:40:02Z</time>
      </trkpt>
      <trkpt lat="45.70207" lon="4.52976">
        <ele>657.67919921875</ele>
        <time>2020-01-19T10:40:19Z</time>
      </trkpt>
      <trkpt lat="45.70207" lon="4.5299">
        <ele>660.08227539062</ele>
        <time>2020-01-19T10:40:40Z</time>
      </trkpt>
      <trkpt lat="45.70205" lon="4.53">
        <ele>663.44702148438</ele>
        <time>2020-01-19T10:40:55Z</time>
      </trkpt>
      <trkpt lat="45.70204" lon="4.53006">
        <ele>664.408203125</ele>
        <time>2020-01-19T10:41:12Z</time>
      </trkpt>
      <trkpt lat="45.70203" lon="4.53017">
        <ele>667.77270507812</ele>
        <time>2020-01-19T10:41:33Z</time>
      </trkpt>
      <trkpt lat="45.702" lon="4.53034">
        <ele>671.1376953125</ele>
        <time>2020-01-19T10:41:51Z</time>
      </trkpt>
      <trkpt lat="45.702" lon="4.53048">
        <ele>674.021484375</ele>
        <time>2020-01-19T10:42:09Z</time>
      </trkpt>
      <trkpt lat="45.70196" lon="4.53058">
        <ele>677.38623046875</ele>
        <time>2020-01-19T10:42:21Z</time>
      </trkpt>
      <trkpt lat="45.70191" lon="4.53081">
        <ele>679.78930664062</ele>
        <time>2020-01-19T10:42:43Z</time>
      </trkpt>
      <trkpt lat="45.70188" lon="4.53093">
        <ele>683.15380859375</ele>
        <time>2020-01-19T10:42:54Z</time>
      </trkpt>
      <trkpt lat="45.70185" lon="4.531">
        <ele>684.59619140625</ele>
        <time>2020-01-19T10:43:02Z</time>
      </trkpt>
      <trkpt lat="45.70183" lon="4.53114">
        <ele>686.99926757812</ele>
        <time>2020-01-19T10:43:22Z</time>
      </trkpt>
      <trkpt lat="45.70177" lon="4.53128">
        <ele>690.36401367188</ele>
        <time>2020-01-19T10:43:42Z</time>
      </trkpt>
      <trkpt lat="45.70169" lon="4.53144">
        <ele>693.24780273438</ele>
        <time>2020-01-19T10:44:00Z</time>
      </trkpt>
      <trkpt lat="45.70158" lon="4.53159">
        <ele>696.61254882812</ele>
        <time>2020-01-19T10:44:18Z</time>
      </trkpt>
      <trkpt lat="45.70143" lon="4.53185">
        <ele>699.49633789062</ele>
        <time>2020-01-19T10:44:48Z</time>
      </trkpt>
      <trkpt lat="45.70133" lon="4.53203">
        <ele>702.38037109375</ele>
        <time>2020-01-19T10:45:10Z</time>
      </trkpt>
      <trkpt lat="45.7013" lon="4.53205">
        <ele>703.341796875</ele>
        <time>2020-01-19T10:45:31Z</time>
      </trkpt>
      <trkpt lat="45.70137" lon="4.53197">
        <ele>706.2255859375</ele>
        <time>2020-01-19T10:45:58Z</time>
      </trkpt>
      <trkpt lat="45.70148" lon="4.53191">
        <ele>705.26440429688</ele>
        <time>2020-01-19T10:46:17Z</time>
      </trkpt>
      <trkpt lat="45.70158" lon="4.53202">
        <ele>705.7451171875</ele>
        <time>2020-01-19T10:46:43Z</time>
      </trkpt>
      <trkpt lat="45.70161" lon="4.53201">
        <ele>705.7451171875</ele>
        <time>2020-01-19T10:47:19Z</time>
      </trkpt>
      <trkpt lat="45.7016" lon="4.53201">
        <ele>705.7451171875</ele>
        <time>2020-01-19T10:47:50Z</time>
      </trkpt>
      <trkpt lat="45.70158" lon="4.53202">
        <ele>703.82250976562</ele>
        <time>2020-01-19T10:48:32Z</time>
      </trkpt>
      <trkpt lat="45.70147" lon="4.53202">
        <ele>703.341796875</ele>
        <time>2020-01-19T10:48:58Z</time>
      </trkpt>
      <trkpt lat="45.70129" lon="4.53202">
        <ele>702.86108398438</ele>
        <time>2020-01-19T10:49:19Z</time>
      </trkpt>
      <trkpt lat="45.70115" lon="4.53211">
        <ele>701.89990234375</ele>
        <time>2020-01-19T10:50:44Z</time>
      </trkpt>
      <trkpt lat="45.70113" lon="4.53213">
        <ele>701.41918945312</ele>
        <time>2020-01-19T10:50:46Z</time>
      </trkpt>
      <trkpt lat="45.70095" lon="4.5323">
        <ele>701.41918945312</ele>
        <time>2020-01-19T10:51:06Z</time>
      </trkpt>
      <trkpt lat="45.70073" lon="4.53258">
        <ele>702.86108398438</ele>
        <time>2020-01-19T10:51:32Z</time>
      </trkpt>
      <trkpt lat="45.70067" lon="4.53271">
        <ele>706.2255859375</ele>
        <time>2020-01-19T10:51:48Z</time>
      </trkpt>
      <trkpt lat="45.70064" lon="4.53285">
        <ele>708.62890625</ele>
        <time>2020-01-19T10:52:08Z</time>
      </trkpt>
      <trkpt lat="45.70056" lon="4.533">
        <ele>711.99365234375</ele>
        <time>2020-01-19T10:52:28Z</time>
      </trkpt>
      <trkpt lat="45.70047" lon="4.53327">
        <ele>712.95483398438</ele>
        <time>2020-01-19T10:52:46Z</time>
      </trkpt>
      <trkpt lat="45.7004" lon="4.53347">
        <ele>716.31958007812</ele>
        <time>2020-01-19T10:53:01Z</time>
      </trkpt>
      <trkpt lat="45.70032" lon="4.5337">
        <ele>716.80029296875</ele>
        <time>2020-01-19T10:53:15Z</time>
      </trkpt>
      <trkpt lat="45.70017" lon="4.53407">
        <ele>718.2421875</ele>
        <time>2020-01-19T10:53:36Z</time>
      </trkpt>
      <trkpt lat="45.70012" lon="4.53438">
        <ele>720.16479492188</ele>
        <time>2020-01-19T10:53:54Z</time>
      </trkpt>
      <trkpt lat="45.70012" lon="4.53474">
        <ele>720.6455078125</ele>
        <time>2020-01-19T10:54:11Z</time>
      </trkpt>
      <trkpt lat="45.70017" lon="4.53507">
        <ele>721.60668945312</ele>
        <time>2020-01-19T10:54:29Z</time>
      </trkpt>
      <trkpt lat="45.70022" lon="4.53534">
        <ele>724.01000976562</ele>
        <time>2020-01-19T10:54:45Z</time>
      </trkpt>
      <trkpt lat="45.7003" lon="4.53558">
        <ele>725.9326171875</ele>
        <time>2020-01-19T10:55:02Z</time>
      </trkpt>
      <trkpt lat="45.7003" lon="4.53587">
        <ele>728.3359375</ele>
        <time>2020-01-19T10:55:19Z</time>
      </trkpt>
      <trkpt lat="45.70024" lon="4.53613">
        <ele>730.7392578125</ele>
        <time>2020-01-19T10:55:34Z</time>
      </trkpt>
      <trkpt lat="45.70024" lon="4.53615">
        <ele>730.25854492188</ele>
        <time>2020-01-19T10:55:35Z</time>
      </trkpt>
      <trkpt lat="45.70016" lon="4.5364">
        <ele>733.142578125</ele>
        <time>2020-01-19T10:55:52Z</time>
      </trkpt>
      <trkpt lat="45.70012" lon="4.53656">
        <ele>735.5458984375</ele>
        <time>2020-01-19T10:56:04Z</time>
      </trkpt>
      <trkpt lat="45.70006" lon="4.53679">
        <ele>736.02661132812</ele>
        <time>2020-01-19T10:56:20Z</time>
      </trkpt>
      <trkpt lat="45.69995" lon="4.537">
        <ele>736.50732421875</ele>
        <time>2020-01-19T10:56:36Z</time>
      </trkpt>
      <trkpt lat="45.69984" lon="4.53717">
        <ele>735.5458984375</ele>
        <time>2020-01-19T10:56:50Z</time>
      </trkpt>
      <trkpt lat="45.69972" lon="4.53745">
        <ele>733.62329101562</ele>
        <time>2020-01-19T10:57:05Z</time>
      </trkpt>
      <trkpt lat="45.69953" lon="4.5377">
        <ele>730.25854492188</ele>
        <time>2020-01-19T10:57:22Z</time>
      </trkpt>
      <trkpt lat="45.69948" lon="4.53794">
        <ele>730.25854492188</ele>
        <time>2020-01-19T10:57:37Z</time>
      </trkpt>
      <trkpt lat="45.69947" lon="4.53797">
        <ele>730.25854492188</ele>
        <time>2020-01-19T10:57:39Z</time>
      </trkpt>
      <trkpt lat="45.69944" lon="4.53805">
        <ele>728.81665039062</ele>
        <time>2020-01-19T10:57:45Z</time>
      </trkpt>
      <trkpt lat="45.69926" lon="4.53824">
        <ele>730.25854492188</ele>
        <time>2020-01-19T10:58:03Z</time>
      </trkpt>
      <trkpt lat="45.69909" lon="4.53835">
        <ele>732.18139648438</ele>
        <time>2020-01-19T10:58:18Z</time>
      </trkpt>
      <trkpt lat="45.69906" lon="4.53839">
        <ele>733.142578125</ele>
        <time>2020-01-19T10:58:34Z</time>
      </trkpt>
      <trkpt lat="45.69903" lon="4.5385">
        <ele>733.142578125</ele>
        <time>2020-01-19T10:58:53Z</time>
      </trkpt>
      <trkpt lat="45.69886" lon="4.53858">
        <ele>734.58471679688</ele>
        <time>2020-01-19T10:59:11Z</time>
      </trkpt>
      <trkpt lat="45.69867" lon="4.53867">
        <ele>737.46850585938</ele>
        <time>2020-01-19T10:59:27Z</time>
      </trkpt>
      <trkpt lat="45.69857" lon="4.53877">
        <ele>739.39111328125</ele>
        <time>2020-01-19T10:59:40Z</time>
      </trkpt>
      <trkpt lat="45.69857" lon="4.53892">
        <ele>740.3525390625</ele>
        <time>2020-01-19T10:59:53Z</time>
      </trkpt>
      <trkpt lat="45.69862" lon="4.53894">
        <ele>741.31372070312</ele>
        <time>2020-01-19T10:59:58Z</time>
      </trkpt>
      <trkpt lat="45.69867" lon="4.53893">
        <ele>742.755859375</ele>
        <time>2020-01-19T11:00:05Z</time>
      </trkpt>
      <trkpt lat="45.69874" lon="4.53896">
        <ele>743.71704101562</ele>
        <time>2020-01-19T11:00:21Z</time>
      </trkpt>
      <trkpt lat="45.6988" lon="4.53897">
        <ele>746.12036132812</ele>
        <time>2020-01-19T11:00:36Z</time>
      </trkpt>
      <trkpt lat="45.69902" lon="4.53907">
        <ele>748.04321289062</ele>
        <time>2020-01-19T11:00:55Z</time>
      </trkpt>
      <trkpt lat="45.69916" lon="4.53906">
        <ele>750.44653320312</ele>
        <time>2020-01-19T11:01:15Z</time>
      </trkpt>
      <trkpt lat="45.69918" lon="4.53905">
        <ele>751.88842773438</ele>
        <time>2020-01-19T11:01:27Z</time>
      </trkpt>
      <trkpt lat="45.69928" lon="4.5391">
        <ele>753.81103515625</ele>
        <time>2020-01-19T11:01:44Z</time>
      </trkpt>
      <trkpt lat="45.69937" lon="4.53914">
        <ele>754.29174804688</ele>
        <time>2020-01-19T11:01:54Z</time>
      </trkpt>
      <trkpt lat="45.69951" lon="4.5392">
        <ele>756.21411132812</ele>
        <time>2020-01-19T11:02:11Z</time>
      </trkpt>
      <trkpt lat="45.69965" lon="4.53928">
        <ele>757.65625</ele>
        <time>2020-01-19T11:02:25Z</time>
      </trkpt>
      <trkpt lat="45.69967" lon="4.5393">
        <ele>758.13696289062</ele>
        <time>2020-01-19T11:02:41Z</time>
      </trkpt>
      <trkpt lat="45.69973" lon="4.5393">
        <ele>760.05932617188</ele>
        <time>2020-01-19T11:02:46Z</time>
      </trkpt>
      <trkpt lat="45.69995" lon="4.53937">
        <ele>761.98217773438</ele>
        <time>2020-01-19T11:03:07Z</time>
      </trkpt>
      <trkpt lat="45.7002" lon="4.53959">
        <ele>764.38549804688</ele>
        <time>2020-01-19T11:03:29Z</time>
      </trkpt>
      <trkpt lat="45.70025" lon="4.53964">
        <ele>764.38549804688</ele>
        <time>2020-01-19T11:03:34Z</time>
      </trkpt>
      <trkpt lat="45.70035" lon="4.53983">
        <ele>765.82763671875</ele>
        <time>2020-01-19T11:03:53Z</time>
      </trkpt>
      <trkpt lat="45.70039" lon="4.5399">
        <ele>768.23071289062</ele>
        <time>2020-01-19T11:03:59Z</time>
      </trkpt>
      <trkpt lat="45.70042" lon="4.53997">
        <ele>770.1533203125</ele>
        <time>2020-01-19T11:04:05Z</time>
      </trkpt>
      <trkpt lat="45.70051" lon="4.54019">
        <ele>771.11474609375</ele>
        <time>2020-01-19T11:04:26Z</time>
      </trkpt>
      <trkpt lat="45.70059" lon="4.54035">
        <ele>774.47924804688</ele>
        <time>2020-01-19T11:04:42Z</time>
      </trkpt>
      <trkpt lat="45.70063" lon="4.54041">
        <ele>772.556640625</ele>
        <time>2020-01-19T11:04:48Z</time>
      </trkpt>
      <trkpt lat="45.70075" lon="4.54056">
        <ele>775.92114257812</ele>
        <time>2020-01-19T11:05:05Z</time>
      </trkpt>
      <trkpt lat="45.70081" lon="4.54062">
        <ele>778.32446289062</ele>
        <time>2020-01-19T11:05:13Z</time>
      </trkpt>
      <trkpt lat="45.70095" lon="4.5407">
        <ele>781.68920898438</ele>
        <time>2020-01-19T11:05:30Z</time>
      </trkpt>
      <trkpt lat="45.70096" lon="4.5407">
        <ele>782.169921875</ele>
        <time>2020-01-19T11:05:33Z</time>
      </trkpt>
      <trkpt lat="45.70114" lon="4.54073">
        <ele>784.5732421875</ele>
        <time>2020-01-19T11:05:51Z</time>
      </trkpt>
      <trkpt lat="45.70118" lon="4.54075">
        <ele>786.01513671875</ele>
        <time>2020-01-19T11:05:58Z</time>
      </trkpt>
      <trkpt lat="45.70134" lon="4.54081">
        <ele>785.05395507812</ele>
        <time>2020-01-19T11:06:16Z</time>
      </trkpt>
      <trkpt lat="45.70145" lon="4.54087">
        <ele>786.97631835938</ele>
        <time>2020-01-19T11:06:27Z</time>
      </trkpt>
      <trkpt lat="45.70165" lon="4.54101">
        <ele>786.01513671875</ele>
        <time>2020-01-19T11:06:45Z</time>
      </trkpt>
      <trkpt lat="45.70185" lon="4.54111">
        <ele>785.05395507812</ele>
        <time>2020-01-19T11:07:01Z</time>
      </trkpt>
      <trkpt lat="45.70187" lon="4.54112">
        <ele>781.20874023438</ele>
        <time>2020-01-19T11:07:03Z</time>
      </trkpt>
      <trkpt lat="45.70188" lon="4.54113">
        <ele>781.68920898438</ele>
        <time>2020-01-19T11:07:04Z</time>
      </trkpt>
      <trkpt lat="45.70197" lon="4.54116">
        <ele>780.72802734375</ele>
        <time>2020-01-19T11:07:10Z</time>
      </trkpt>
      <trkpt lat="45.70201" lon="4.54119">
        <ele>778.80517578125</ele>
        <time>2020-01-19T11:07:13Z</time>
      </trkpt>
      <trkpt lat="45.7021" lon="4.54125">
        <ele>775.4404296875</ele>
        <time>2020-01-19T11:07:22Z</time>
      </trkpt>
      <trkpt lat="45.70213" lon="4.54127">
        <ele>779.28564453125</ele>
        <time>2020-01-19T11:07:24Z</time>
      </trkpt>
      <trkpt lat="45.70214" lon="4.54128">
        <ele>778.80517578125</ele>
        <time>2020-01-19T11:07:25Z</time>
      </trkpt>
      <trkpt lat="45.70219" lon="4.54134">
        <ele>777.84375</ele>
        <time>2020-01-19T11:07:30Z</time>
      </trkpt>
      <trkpt lat="45.70229" lon="4.54147">
        <ele>774.47924804688</ele>
        <time>2020-01-19T11:07:40Z</time>
      </trkpt>
      <trkpt lat="45.70235" lon="4.54155">
        <ele>773.51806640625</ele>
        <time>2020-01-19T11:07:46Z</time>
      </trkpt>
      <trkpt lat="45.70245" lon="4.54165">
        <ele>773.03735351562</ele>
        <time>2020-01-19T11:07:54Z</time>
      </trkpt>
      <trkpt lat="45.70264" lon="4.54185">
        <ele>772.07592773438</ele>
        <time>2020-01-19T11:08:11Z</time>
      </trkpt>
      <trkpt lat="45.70268" lon="4.5419">
        <ele>771.11474609375</ele>
        <time>2020-01-19T11:08:16Z</time>
      </trkpt>
      <trkpt lat="45.70274" lon="4.54204">
        <ele>770.1533203125</ele>
        <time>2020-01-19T11:08:25Z</time>
      </trkpt>
      <trkpt lat="45.70278" lon="4.54215">
        <ele>767.75</ele>
        <time>2020-01-19T11:08:32Z</time>
      </trkpt>
      <trkpt lat="45.7029" lon="4.54239">
        <ele>765.34692382812</ele>
        <time>2020-01-19T11:08:47Z</time>
      </trkpt>
      <trkpt lat="45.70292" lon="4.54255">
        <ele>764.38549804688</ele>
        <time>2020-01-19T11:08:56Z</time>
      </trkpt>
      <trkpt lat="45.70293" lon="4.54259">
        <ele>763.42407226562</ele>
        <time>2020-01-19T11:08:58Z</time>
      </trkpt>
      <trkpt lat="45.70294" lon="4.54263">
        <ele>764.38549804688</ele>
        <time>2020-01-19T11:09:00Z</time>
      </trkpt>
      <trkpt lat="45.70296" lon="4.54271">
        <ele>763.42407226562</ele>
        <time>2020-01-19T11:09:05Z</time>
      </trkpt>
      <trkpt lat="45.70297" lon="4.54274">
        <ele>762.46264648438</ele>
        <time>2020-01-19T11:09:07Z</time>
      </trkpt>
      <trkpt lat="45.70299" lon="4.54285">
        <ele>761.50146484375</ele>
        <time>2020-01-19T11:09:13Z</time>
      </trkpt>
      <trkpt lat="45.70309" lon="4.54311">
        <ele>763.90454101562</ele>
        <time>2020-01-19T11:09:30Z</time>
      </trkpt>
      <trkpt lat="45.70313" lon="4.54318">
        <ele>764.8662109375</ele>
        <time>2020-01-19T11:09:35Z</time>
      </trkpt>
      <trkpt lat="45.70328" lon="4.54332">
        <ele>764.8662109375</ele>
        <time>2020-01-19T11:09:51Z</time>
      </trkpt>
      <trkpt lat="45.7034" lon="4.54345">
        <ele>765.34692382812</ele>
        <time>2020-01-19T11:10:05Z</time>
      </trkpt>
      <trkpt lat="45.70342" lon="4.54346">
        <ele>764.38549804688</ele>
        <time>2020-01-19T11:10:07Z</time>
      </trkpt>
      <trkpt lat="45.70343" lon="4.54355">
        <ele>767.26953125</ele>
        <time>2020-01-19T11:10:18Z</time>
      </trkpt>
      <trkpt lat="45.70351" lon="4.54362">
        <ele>769.6728515625</ele>
        <time>2020-01-19T11:10:33Z</time>
      </trkpt>
      <trkpt lat="45.70357" lon="4.5437">
        <ele>771.59521484375</ele>
        <time>2020-01-19T11:10:49Z</time>
      </trkpt>
      <trkpt lat="45.70368" lon="4.54379">
        <ele>774.9599609375</ele>
        <time>2020-01-19T11:11:05Z</time>
      </trkpt>
      <trkpt lat="45.70377" lon="4.54381">
        <ele>776.40185546875</ele>
        <time>2020-01-19T11:11:22Z</time>
      </trkpt>
      <trkpt lat="45.7039" lon="4.54371">
        <ele>777.36328125</ele>
        <time>2020-01-19T11:11:42Z</time>
      </trkpt>
      <trkpt lat="45.70403" lon="4.54373">
        <ele>780.72802734375</ele>
        <time>2020-01-19T11:11:55Z</time>
      </trkpt>
      <trkpt lat="45.7041" lon="4.54374">
        <ele>779.76635742188</ele>
        <time>2020-01-19T11:11:59Z</time>
      </trkpt>
      <trkpt lat="45.70433" lon="4.544">
        <ele>780.72802734375</ele>
        <time>2020-01-19T11:12:22Z</time>
      </trkpt>
      <trkpt lat="45.70445" lon="4.5442">
        <ele>780.72802734375</ele>
        <time>2020-01-19T11:12:36Z</time>
      </trkpt>
      <trkpt lat="45.7045" lon="4.5443">
        <ele>781.20874023438</ele>
        <time>2020-01-19T11:12:45Z</time>
      </trkpt>
      <trkpt lat="45.70464" lon="4.54452">
        <ele>782.169921875</ele>
        <time>2020-01-19T11:13:01Z</time>
      </trkpt>
      <trkpt lat="45.70475" lon="4.54476">
        <ele>784.5732421875</ele>
        <time>2020-01-19T11:13:19Z</time>
      </trkpt>
      <trkpt lat="45.70484" lon="4.54489">
        <ele>787.93774414062</ele>
        <time>2020-01-19T11:13:29Z</time>
      </trkpt>
      <trkpt lat="45.70493" lon="4.54512">
        <ele>787.93774414062</ele>
        <time>2020-01-19T11:13:47Z</time>
      </trkpt>
      <trkpt lat="45.70499" lon="4.5452">
        <ele>788.89916992188</ele>
        <time>2020-01-19T11:13:54Z</time>
      </trkpt>
      <trkpt lat="45.70505" lon="4.54532">
        <ele>789.37963867188</ele>
        <time>2020-01-19T11:14:03Z</time>
      </trkpt>
      <trkpt lat="45.70508" lon="4.54534">
        <ele>788.41845703125</ele>
        <time>2020-01-19T11:14:06Z</time>
      </trkpt>
      <trkpt lat="45.70516" lon="4.54552">
        <ele>791.30224609375</ele>
        <time>2020-01-19T11:14:21Z</time>
      </trkpt>
      <trkpt lat="45.7053" lon="4.54576">
        <ele>793.22485351562</ele>
        <time>2020-01-19T11:14:41Z</time>
      </trkpt>
      <trkpt lat="45.70538" lon="4.5459">
        <ele>794.18627929688</ele>
        <time>2020-01-19T11:14:55Z</time>
      </trkpt>
      <trkpt lat="45.70545" lon="4.54607">
        <ele>797.55102539062</ele>
        <time>2020-01-19T11:15:08Z</time>
      </trkpt>
      <trkpt lat="45.70549" lon="4.54629">
        <ele>800.43505859375</ele>
        <time>2020-01-19T11:15:23Z</time>
      </trkpt>
      <trkpt lat="45.70552" lon="4.54634">
        <ele>796.58984375</ele>
        <time>2020-01-19T11:15:28Z</time>
      </trkpt>
      <trkpt lat="45.70552" lon="4.54634">
        <ele>797.0703125</ele>
        <time>2020-01-19T11:15:29Z</time>
      </trkpt>
      <trkpt lat="45.70559" lon="4.54639">
        <ele>795.62817382812</ele>
        <time>2020-01-19T11:15:34Z</time>
      </trkpt>
      <trkpt lat="45.70564" lon="4.54644">
        <ele>798.99291992188</ele>
        <time>2020-01-19T11:15:41Z</time>
      </trkpt>
      <trkpt lat="45.7058" lon="4.54666">
        <ele>803.31884765625</ele>
        <time>2020-01-19T11:16:04Z</time>
      </trkpt>
      <trkpt lat="45.7058" lon="4.54667">
        <ele>802.83813476562</ele>
        <time>2020-01-19T11:16:05Z</time>
      </trkpt>
      <trkpt lat="45.70593" lon="4.54687">
        <ele>800.43505859375</ele>
        <time>2020-01-19T11:16:28Z</time>
      </trkpt>
      <trkpt lat="45.70595" lon="4.54689">
        <ele>802.357421875</ele>
        <time>2020-01-19T11:16:31Z</time>
      </trkpt>
      <trkpt lat="45.70611" lon="4.54708">
        <ele>806.20263671875</ele>
        <time>2020-01-19T11:16:51Z</time>
      </trkpt>
      <trkpt lat="45.70613" lon="4.54709">
        <ele>806.20263671875</ele>
        <time>2020-01-19T11:16:52Z</time>
      </trkpt>
      <trkpt lat="45.70622" lon="4.54715">
        <ele>807.64477539062</ele>
        <time>2020-01-19T11:17:00Z</time>
      </trkpt>
      <trkpt lat="45.70628" lon="4.54725">
        <ele>808.60595703125</ele>
        <time>2020-01-19T11:17:14Z</time>
      </trkpt>
      <trkpt lat="45.70633" lon="4.54729">
        <ele>812.45141601562</ele>
        <time>2020-01-19T11:17:20Z</time>
      </trkpt>
      <trkpt lat="45.70641" lon="4.54734">
        <ele>810.52856445312</ele>
        <time>2020-01-19T11:17:26Z</time>
      </trkpt>
      <trkpt lat="45.70645" lon="4.54736">
        <ele>808.12548828125</ele>
        <time>2020-01-19T11:17:30Z</time>
      </trkpt>
      <trkpt lat="45.70655" lon="4.54742">
        <ele>809.5673828125</ele>
        <time>2020-01-19T11:17:39Z</time>
      </trkpt>
      <trkpt lat="45.70675" lon="4.54746">
        <ele>811.970703125</ele>
        <time>2020-01-19T11:17:59Z</time>
      </trkpt>
      <trkpt lat="45.70688" lon="4.54754">
        <ele>811.48999023438</ele>
        <time>2020-01-19T11:18:12Z</time>
      </trkpt>
      <trkpt lat="45.70701" lon="4.54767">
        <ele>811.970703125</ele>
        <time>2020-01-19T11:18:25Z</time>
      </trkpt>
      <trkpt lat="45.70715" lon="4.54779">
        <ele>813.41284179688</ele>
        <time>2020-01-19T11:18:39Z</time>
      </trkpt>
      <trkpt lat="45.70718" lon="4.54785">
        <ele>813.41284179688</ele>
        <time>2020-01-19T11:18:51Z</time>
      </trkpt>
      <trkpt lat="45.70719" lon="4.54788">
        <ele>812.45141601562</ele>
        <time>2020-01-19T11:18:53Z</time>
      </trkpt>
      <trkpt lat="45.70728" lon="4.54796">
        <ele>813.89331054688</ele>
        <time>2020-01-19T11:19:07Z</time>
      </trkpt>
      <trkpt lat="45.70733" lon="4.54802">
        <ele>814.85473632812</ele>
        <time>2020-01-19T11:19:32Z</time>
      </trkpt>
      <trkpt lat="45.70733" lon="4.54803">
        <ele>815.33544921875</ele>
        <time>2020-01-19T11:19:33Z</time>
      </trkpt>
      <trkpt lat="45.70734" lon="4.54803">
        <ele>815.81616210938</ele>
        <time>2020-01-19T11:19:50Z</time>
      </trkpt>
      <trkpt lat="45.70734" lon="4.54803">
        <ele>816.29663085938</ele>
        <time>2020-01-19T11:20:02Z</time>
      </trkpt>
      <trkpt lat="45.70734" lon="4.54803">
        <ele>813.41284179688</ele>
        <time>2020-01-19T11:20:17Z</time>
      </trkpt>
      <trkpt lat="45.70744" lon="4.54814">
        <ele>816.29663085938</ele>
        <time>2020-01-19T11:21:24Z</time>
      </trkpt>
      <trkpt lat="45.70754" lon="4.54828">
        <ele>818.69995117188</ele>
        <time>2020-01-19T11:21:36Z</time>
      </trkpt>
      <trkpt lat="45.70758" lon="4.54841">
        <ele>818.69995117188</ele>
        <time>2020-01-19T11:21:46Z</time>
      </trkpt>
      <trkpt lat="45.70762" lon="4.54847">
        <ele>819.1806640625</ele>
        <time>2020-01-19T11:21:50Z</time>
      </trkpt>
      <trkpt lat="45.70769" lon="4.54864">
        <ele>821.10327148438</ele>
        <time>2020-01-19T11:22:04Z</time>
      </trkpt>
      <trkpt lat="45.70779" lon="4.54885">
        <ele>823.98706054688</ele>
        <time>2020-01-19T11:22:20Z</time>
      </trkpt>
      <trkpt lat="45.7079" lon="4.54899">
        <ele>826.87109375</ele>
        <time>2020-01-19T11:22:36Z</time>
      </trkpt>
      <trkpt lat="45.70802" lon="4.54912">
        <ele>828.31323242188</ele>
        <time>2020-01-19T11:22:54Z</time>
      </trkpt>
      <trkpt lat="45.70822" lon="4.54928">
        <ele>829.75512695312</ele>
        <time>2020-01-19T11:23:16Z</time>
      </trkpt>
      <trkpt lat="45.70838" lon="4.54945">
        <ele>832.15844726562</ele>
        <time>2020-01-19T11:23:37Z</time>
      </trkpt>
      <trkpt lat="45.70839" lon="4.54948">
        <ele>833.60034179688</ele>
        <time>2020-01-19T11:23:40Z</time>
      </trkpt>
      <trkpt lat="45.70848" lon="4.54959">
        <ele>834.0810546875</ele>
        <time>2020-01-19T11:23:48Z</time>
      </trkpt>
      <trkpt lat="45.70856" lon="4.54974">
        <ele>837.44555664062</ele>
        <time>2020-01-19T11:23:59Z</time>
      </trkpt>
      <trkpt lat="45.70857" lon="4.54976">
        <ele>837.44555664062</ele>
        <time>2020-01-19T11:24:00Z</time>
      </trkpt>
      <trkpt lat="45.70858" lon="4.54986">
        <ele>834.0810546875</ele>
        <time>2020-01-19T11:24:04Z</time>
      </trkpt>
      <trkpt lat="45.70859" lon="4.54987">
        <ele>834.0810546875</ele>
        <time>2020-01-19T11:24:05Z</time>
      </trkpt>
      <trkpt lat="45.70867" lon="4.54999">
        <ele>836.96484375</ele>
        <time>2020-01-19T11:24:14Z</time>
      </trkpt>
      <trkpt lat="45.70868" lon="4.55">
        <ele>837.92626953125</ele>
        <time>2020-01-19T11:24:15Z</time>
      </trkpt>
      <trkpt lat="45.70871" lon="4.55007">
        <ele>836.00366210938</ele>
        <time>2020-01-19T11:24:21Z</time>
      </trkpt>
      <trkpt lat="45.70883" lon="4.55024">
        <ele>836.96484375</ele>
        <time>2020-01-19T11:24:36Z</time>
      </trkpt>
      <trkpt lat="45.70895" lon="4.55039">
        <ele>835.52294921875</ele>
        <time>2020-01-19T11:24:49Z</time>
      </trkpt>
      <trkpt lat="45.70899" lon="4.55045">
        <ele>838.40698242188</ele>
        <time>2020-01-19T11:24:54Z</time>
      </trkpt>
      <trkpt lat="45.70906" lon="4.55054">
        <ele>835.04248046875</ele>
        <time>2020-01-19T11:25:03Z</time>
      </trkpt>
      <trkpt lat="45.70907" lon="4.55055">
        <ele>834.0810546875</ele>
        <time>2020-01-19T11:25:04Z</time>
      </trkpt>
      <trkpt lat="45.70913" lon="4.55062">
        <ele>837.92626953125</ele>
        <time>2020-01-19T11:25:10Z</time>
      </trkpt>
      <trkpt lat="45.70917" lon="4.55067">
        <ele>841.29077148438</ele>
        <time>2020-01-19T11:25:14Z</time>
      </trkpt>
      <trkpt lat="45.70926" lon="4.55072">
        <ele>837.92626953125</ele>
        <time>2020-01-19T11:25:21Z</time>
      </trkpt>
      <trkpt lat="45.70931" lon="4.55077">
        <ele>836.484375</ele>
        <time>2020-01-19T11:25:25Z</time>
      </trkpt>
      <trkpt lat="45.70937" lon="4.55085">
        <ele>830.71655273438</ele>
        <time>2020-01-19T11:25:31Z</time>
      </trkpt>
      <trkpt lat="45.70938" lon="4.55087">
        <ele>832.63916015625</ele>
        <time>2020-01-19T11:25:32Z</time>
      </trkpt>
      <trkpt lat="45.70941" lon="4.55091">
        <ele>833.60034179688</ele>
        <time>2020-01-19T11:25:34Z</time>
      </trkpt>
      <trkpt lat="45.70945" lon="4.55097">
        <ele>832.63916015625</ele>
        <time>2020-01-19T11:25:39Z</time>
      </trkpt>
      <trkpt lat="45.70954" lon="4.5511">
        <ele>835.52294921875</ele>
        <time>2020-01-19T11:25:48Z</time>
      </trkpt>
      <trkpt lat="45.70962" lon="4.55121">
        <ele>838.40698242188</ele>
        <time>2020-01-19T11:25:55Z</time>
      </trkpt>
      <trkpt lat="45.70963" lon="4.55122">
        <ele>834.56176757812</ele>
        <time>2020-01-19T11:25:57Z</time>
      </trkpt>
      <trkpt lat="45.70973" lon="4.55136">
        <ele>837.44555664062</ele>
        <time>2020-01-19T11:26:08Z</time>
      </trkpt>
      <trkpt lat="45.7098" lon="4.55144">
        <ele>836.00366210938</ele>
        <time>2020-01-19T11:26:15Z</time>
      </trkpt>
      <trkpt lat="45.7098" lon="4.55147">
        <ele>836.00366210938</ele>
        <time>2020-01-19T11:26:17Z</time>
      </trkpt>
      <trkpt lat="45.70991" lon="4.55162">
        <ele>833.11962890625</ele>
        <time>2020-01-19T11:26:25Z</time>
      </trkpt>
      <trkpt lat="45.70993" lon="4.55165">
        <ele>834.56176757812</ele>
        <time>2020-01-19T11:26:27Z</time>
      </trkpt>
      <trkpt lat="45.71011" lon="4.55192">
        <ele>835.52294921875</ele>
        <time>2020-01-19T11:26:44Z</time>
      </trkpt>
      <trkpt lat="45.71015" lon="4.55199">
        <ele>836.00366210938</ele>
        <time>2020-01-19T11:26:49Z</time>
      </trkpt>
      <trkpt lat="45.7102" lon="4.55211">
        <ele>835.52294921875</ele>
        <time>2020-01-19T11:26:56Z</time>
      </trkpt>
      <trkpt lat="45.71023" lon="4.55216">
        <ele>836.484375</ele>
        <time>2020-01-19T11:27:00Z</time>
      </trkpt>
      <trkpt lat="45.71035" lon="4.55232">
        <ele>836.96484375</ele>
        <time>2020-01-19T11:27:12Z</time>
      </trkpt>
      <trkpt lat="45.71038" lon="4.55236">
        <ele>840.32958984375</ele>
        <time>2020-01-19T11:27:15Z</time>
      </trkpt>
      <trkpt lat="45.71039" lon="4.55238">
        <ele>839.84887695312</ele>
        <time>2020-01-19T11:27:16Z</time>
      </trkpt>
      <trkpt lat="45.71048" lon="4.55254">
        <ele>839.84887695312</ele>
        <time>2020-01-19T11:27:27Z</time>
      </trkpt>
      <trkpt lat="45.71057" lon="4.55274">
        <ele>839.3681640625</ele>
        <time>2020-01-19T11:27:41Z</time>
      </trkpt>
      <trkpt lat="45.71059" lon="4.55277">
        <ele>842.73291015625</ele>
        <time>2020-01-19T11:27:43Z</time>
      </trkpt>
      <trkpt lat="45.71061" lon="4.55284">
        <ele>841.771484375</ele>
        <time>2020-01-19T11:27:47Z</time>
      </trkpt>
      <trkpt lat="45.71067" lon="4.55292">
        <ele>842.25219726562</ele>
        <time>2020-01-19T11:27:53Z</time>
      </trkpt>
      <trkpt lat="45.71069" lon="4.55304">
        <ele>843.69409179688</ele>
        <time>2020-01-19T11:28:02Z</time>
      </trkpt>
      <trkpt lat="45.71077" lon="4.55328">
        <ele>846.57836914062</ele>
        <time>2020-01-19T11:28:18Z</time>
      </trkpt>
      <trkpt lat="45.71082" lon="4.55348">
        <ele>848.9814453125</ele>
        <time>2020-01-19T11:28:32Z</time>
      </trkpt>
      <trkpt lat="45.71085" lon="4.55361">
        <ele>849.46215820312</ele>
        <time>2020-01-19T11:28:41Z</time>
      </trkpt>
      <trkpt lat="45.71088" lon="4.55379">
        <ele>852.82666015625</ele>
        <time>2020-01-19T11:28:53Z</time>
      </trkpt>
      <trkpt lat="45.7109" lon="4.554">
        <ele>855.71069335938</ele>
        <time>2020-01-19T11:29:07Z</time>
      </trkpt>
      <trkpt lat="45.71094" lon="4.55414">
        <ele>856.671875</ele>
        <time>2020-01-19T11:29:16Z</time>
      </trkpt>
      <trkpt lat="45.71095" lon="4.5542">
        <ele>857.15258789062</ele>
        <time>2020-01-19T11:29:20Z</time>
      </trkpt>
      <trkpt lat="45.71095" lon="4.55422">
        <ele>858.11401367188</ele>
        <time>2020-01-19T11:29:22Z</time>
      </trkpt>
      <trkpt lat="45.71095" lon="4.55427">
        <ele>860.03662109375</ele>
        <time>2020-01-19T11:29:25Z</time>
      </trkpt>
      <trkpt lat="45.71094" lon="4.55428">
        <ele>856.19116210938</ele>
        <time>2020-01-19T11:29:26Z</time>
      </trkpt>
      <trkpt lat="45.71094" lon="4.55433">
        <ele>855.22998046875</ele>
        <time>2020-01-19T11:29:32Z</time>
      </trkpt>
      <trkpt lat="45.71094" lon="4.55436">
        <ele>857.63330078125</ele>
        <time>2020-01-19T11:29:37Z</time>
      </trkpt>
      <trkpt lat="45.71094" lon="4.55436">
        <ele>858.11401367188</ele>
        <time>2020-01-19T11:29:38Z</time>
      </trkpt>
      <trkpt lat="45.71084" lon="4.55446">
        <ele>858.59448242188</ele>
        <time>2020-01-19T11:29:52Z</time>
      </trkpt>
      <trkpt lat="45.71083" lon="4.55448">
        <ele>858.11401367188</ele>
        <time>2020-01-19T11:29:53Z</time>
      </trkpt>
      <trkpt lat="45.71074" lon="4.55469">
        <ele>860.03662109375</ele>
        <time>2020-01-19T11:30:08Z</time>
      </trkpt>
      <trkpt lat="45.71069" lon="4.55473">
        <ele>859.55590820312</ele>
        <time>2020-01-19T11:30:13Z</time>
      </trkpt>
      <trkpt lat="45.71056" lon="4.5548">
        <ele>859.55590820312</ele>
        <time>2020-01-19T11:30:24Z</time>
      </trkpt>
      <trkpt lat="45.7105" lon="4.55485">
        <ele>860.51733398438</ele>
        <time>2020-01-19T11:30:29Z</time>
      </trkpt>
      <trkpt lat="45.71035" lon="4.55498">
        <ele>863.4013671875</ele>
        <time>2020-01-19T11:30:44Z</time>
      </trkpt>
      <trkpt lat="45.71025" lon="4.55505">
        <ele>863.8818359375</ele>
        <time>2020-01-19T11:30:54Z</time>
      </trkpt>
      <trkpt lat="45.7101" lon="4.55513">
        <ele>864.36254882812</ele>
        <time>2020-01-19T11:31:07Z</time>
      </trkpt>
      <trkpt lat="45.71002" lon="4.55518">
        <ele>867.72705078125</ele>
        <time>2020-01-19T11:31:15Z</time>
      </trkpt>
      <trkpt lat="45.70988" lon="4.55531">
        <ele>869.64990234375</ele>
        <time>2020-01-19T11:31:32Z</time>
      </trkpt>
      <trkpt lat="45.70983" lon="4.55532">
        <ele>871.091796875</ele>
        <time>2020-01-19T11:31:37Z</time>
      </trkpt>
      <trkpt lat="45.70978" lon="4.55539">
        <ele>871.572265625</ele>
        <time>2020-01-19T11:31:45Z</time>
      </trkpt>
      <trkpt lat="45.70957" lon="4.55551">
        <ele>873.01440429688</ele>
        <time>2020-01-19T11:32:06Z</time>
      </trkpt>
      <trkpt lat="45.70942" lon="4.55556">
        <ele>875.89819335938</ele>
        <time>2020-01-19T11:32:23Z</time>
      </trkpt>
      <trkpt lat="45.70924" lon="4.55568">
        <ele>877.82104492188</ele>
        <time>2020-01-19T11:32:43Z</time>
      </trkpt>
      <trkpt lat="45.70922" lon="4.55573">
        <ele>877.82104492188</ele>
        <time>2020-01-19T11:32:47Z</time>
      </trkpt>
      <trkpt lat="45.70919" lon="4.55578">
        <ele>879.26293945312</ele>
        <time>2020-01-19T11:32:50Z</time>
      </trkpt>
      <trkpt lat="45.70899" lon="4.55595">
        <ele>880.22436523438</ele>
        <time>2020-01-19T11:33:09Z</time>
      </trkpt>
      <trkpt lat="45.70877" lon="4.5561">
        <ele>881.18579101562</ele>
        <time>2020-01-19T11:33:29Z</time>
      </trkpt>
      <trkpt lat="45.70856" lon="4.55617">
        <ele>883.10815429688</ele>
        <time>2020-01-19T11:33:46Z</time>
      </trkpt>
      <trkpt lat="45.70837" lon="4.55624">
        <ele>884.06958007812</ele>
        <time>2020-01-19T11:34:02Z</time>
      </trkpt>
      <trkpt lat="45.7082" lon="4.55633">
        <ele>885.9921875</ele>
        <time>2020-01-19T11:34:17Z</time>
      </trkpt>
      <trkpt lat="45.70808" lon="4.55641">
        <ele>887.43408203125</ele>
        <time>2020-01-19T11:34:28Z</time>
      </trkpt>
      <trkpt lat="45.708" lon="4.55648">
        <ele>887.43408203125</ele>
        <time>2020-01-19T11:34:38Z</time>
      </trkpt>
      <trkpt lat="45.70793" lon="4.55655">
        <ele>887.43408203125</ele>
        <time>2020-01-19T11:34:45Z</time>
      </trkpt>
      <trkpt lat="45.70787" lon="4.55659">
        <ele>887.43408203125</ele>
        <time>2020-01-19T11:34:51Z</time>
      </trkpt>
      <trkpt lat="45.70785" lon="4.55661">
        <ele>888.3955078125</ele>
        <time>2020-01-19T11:34:54Z</time>
      </trkpt>
      <trkpt lat="45.7078" lon="4.5567">
        <ele>889.83740234375</ele>
        <time>2020-01-19T11:35:01Z</time>
      </trkpt>
      <trkpt lat="45.70779" lon="4.55672">
        <ele>889.83740234375</ele>
        <time>2020-01-19T11:35:03Z</time>
      </trkpt>
      <trkpt lat="45.70773" lon="4.55684">
        <ele>890.79858398438</ele>
        <time>2020-01-19T11:35:13Z</time>
      </trkpt>
      <trkpt lat="45.70766" lon="4.55701">
        <ele>889.83740234375</ele>
        <time>2020-01-19T11:35:25Z</time>
      </trkpt>
      <trkpt lat="45.70766" lon="4.55703">
        <ele>890.31811523438</ele>
        <time>2020-01-19T11:35:27Z</time>
      </trkpt>
      <trkpt lat="45.70762" lon="4.55713">
        <ele>891.279296875</ele>
        <time>2020-01-19T11:35:33Z</time>
      </trkpt>
      <trkpt lat="45.70755" lon="4.55723">
        <ele>890.79858398438</ele>
        <time>2020-01-19T11:35:43Z</time>
      </trkpt>
      <trkpt lat="45.70751" lon="4.55726">
        <ele>890.31811523438</ele>
        <time>2020-01-19T11:36:05Z</time>
      </trkpt>
      <trkpt lat="45.70743" lon="4.55742">
        <ele>890.79858398438</ele>
        <time>2020-01-19T11:36:15Z</time>
      </trkpt>
      <trkpt lat="45.70735" lon="4.55758">
        <ele>891.76000976562</ele>
        <time>2020-01-19T11:36:28Z</time>
      </trkpt>
      <trkpt lat="45.70723" lon="4.55782">
        <ele>891.279296875</ele>
        <time>2020-01-19T11:36:45Z</time>
      </trkpt>
      <trkpt lat="45.70712" lon="4.55805">
        <ele>891.76000976562</ele>
        <time>2020-01-19T11:37:01Z</time>
      </trkpt>
      <trkpt lat="45.70702" lon="4.55828">
        <ele>891.279296875</ele>
        <time>2020-01-19T11:37:16Z</time>
      </trkpt>
      <trkpt lat="45.70696" lon="4.5584">
        <ele>891.76000976562</ele>
        <time>2020-01-19T11:37:26Z</time>
      </trkpt>
      <trkpt lat="45.7069" lon="4.5585">
        <ele>891.279296875</ele>
        <time>2020-01-19T11:37:35Z</time>
      </trkpt>
      <trkpt lat="45.70688" lon="4.5585">
        <ele>892.24096679688</ele>
        <time>2020-01-19T11:37:42Z</time>
      </trkpt>
      <trkpt lat="45.70688" lon="4.55849">
        <ele>890.79858398438</ele>
        <time>2020-01-19T11:37:51Z</time>
      </trkpt>
      <trkpt lat="45.70688" lon="4.55851">
        <ele>890.79858398438</ele>
        <time>2020-01-19T11:38:14Z</time>
      </trkpt>
      <trkpt lat="45.70686" lon="4.55849">
        <ele>892.24096679688</ele>
        <time>2020-01-19T11:38:32Z</time>
      </trkpt>
      <trkpt lat="45.70686" lon="4.55849">
        <ele>895.60546875</ele>
        <time>2020-01-19T11:39:23Z</time>
      </trkpt>
      <trkpt lat="45.70687" lon="4.55849">
        <ele>891.76000976562</ele>
        <time>2020-01-19T11:39:28Z</time>
      </trkpt>
      <trkpt lat="45.70687" lon="4.55849">
        <ele>891.76000976562</ele>
        <time>2020-01-19T11:39:29Z</time>
      </trkpt>
      <trkpt lat="45.70687" lon="4.55849">
        <ele>891.279296875</ele>
        <time>2020-01-19T11:39:31Z</time>
      </trkpt>
      <trkpt lat="45.70696" lon="4.55837">
        <ele>891.76000976562</ele>
        <time>2020-01-19T11:39:41Z</time>
      </trkpt>
      <trkpt lat="45.70701" lon="4.55829">
        <ele>889.83740234375</ele>
        <time>2020-01-19T11:39:51Z</time>
      </trkpt>
      <trkpt lat="45.70698" lon="4.55838">
        <ele>890.79858398438</ele>
        <time>2020-01-19T11:39:59Z</time>
      </trkpt>
      <trkpt lat="45.70693" lon="4.55853">
        <ele>888.87622070312</ele>
        <time>2020-01-19T11:40:13Z</time>
      </trkpt>
      <trkpt lat="45.70691" lon="4.55859">
        <ele>890.79858398438</ele>
        <time>2020-01-19T11:40:23Z</time>
      </trkpt>
      <trkpt lat="45.70691" lon="4.55858">
        <ele>890.31811523438</ele>
        <time>2020-01-19T11:40:34Z</time>
      </trkpt>
      <trkpt lat="45.7069" lon="4.55858">
        <ele>889.83740234375</ele>
        <time>2020-01-19T11:40:58Z</time>
      </trkpt>
      <trkpt lat="45.7069" lon="4.55857">
        <ele>888.87622070312</ele>
        <time>2020-01-19T11:41:29Z</time>
      </trkpt>
      <trkpt lat="45.70691" lon="4.55852">
        <ele>889.83740234375</ele>
        <time>2020-01-19T11:41:33Z</time>
      </trkpt>
      <trkpt lat="45.70701" lon="4.55824">
        <ele>889.83740234375</ele>
        <time>2020-01-19T11:41:51Z</time>
      </trkpt>
      <trkpt lat="45.70706" lon="4.55815">
        <ele>890.31811523438</ele>
        <time>2020-01-19T11:41:58Z</time>
      </trkpt>
      <trkpt lat="45.70718" lon="4.55786">
        <ele>891.76000976562</ele>
        <time>2020-01-19T11:42:18Z</time>
      </trkpt>
      <trkpt lat="45.7073" lon="4.55761">
        <ele>892.7216796875</ele>
        <time>2020-01-19T11:42:36Z</time>
      </trkpt>
      <trkpt lat="45.70737" lon="4.55743">
        <ele>891.279296875</ele>
        <time>2020-01-19T11:42:49Z</time>
      </trkpt>
      <trkpt lat="45.70744" lon="4.55733">
        <ele>890.31811523438</ele>
        <time>2020-01-19T11:42:58Z</time>
      </trkpt>
      <trkpt lat="45.70751" lon="4.55709">
        <ele>890.31811523438</ele>
        <time>2020-01-19T11:43:15Z</time>
      </trkpt>
      <trkpt lat="45.70752" lon="4.55709">
        <ele>889.83740234375</ele>
        <time>2020-01-19T11:43:16Z</time>
      </trkpt>
      <trkpt lat="45.70754" lon="4.55705">
        <ele>889.35668945312</ele>
        <time>2020-01-19T11:43:19Z</time>
      </trkpt>
      <trkpt lat="45.70769" lon="4.55677">
        <ele>888.87622070312</ele>
        <time>2020-01-19T11:43:39Z</time>
      </trkpt>
      <trkpt lat="45.70773" lon="4.55672">
        <ele>887.43408203125</ele>
        <time>2020-01-19T11:43:45Z</time>
      </trkpt>
      <trkpt lat="45.70791" lon="4.55649">
        <ele>886.47290039062</ele>
        <time>2020-01-19T11:44:05Z</time>
      </trkpt>
      <trkpt lat="45.70794" lon="4.55647">
        <ele>888.3955078125</ele>
        <time>2020-01-19T11:44:08Z</time>
      </trkpt>
      <trkpt lat="45.70797" lon="4.55644">
        <ele>886.47290039062</ele>
        <time>2020-01-19T11:44:11Z</time>
      </trkpt>
      <trkpt lat="45.70815" lon="4.55631">
        <ele>883.10815429688</ele>
        <time>2020-01-19T11:44:27Z</time>
      </trkpt>
      <trkpt lat="45.70836" lon="4.55618">
        <ele>882.14697265625</ele>
        <time>2020-01-19T11:44:48Z</time>
      </trkpt>
      <trkpt lat="45.70851" lon="4.55613">
        <ele>881.66625976562</ele>
        <time>2020-01-19T11:44:58Z</time>
      </trkpt>
      <trkpt lat="45.70856" lon="4.55612">
        <ele>880.705078125</ele>
        <time>2020-01-19T11:45:02Z</time>
      </trkpt>
      <trkpt lat="45.70861" lon="4.55608">
        <ele>880.22436523438</ele>
        <time>2020-01-19T11:45:06Z</time>
      </trkpt>
      <trkpt lat="45.70884" lon="4.55596">
        <ele>879.26293945312</ele>
        <time>2020-01-19T11:45:25Z</time>
      </trkpt>
      <trkpt lat="45.70903" lon="4.55588">
        <ele>876.37915039062</ele>
        <time>2020-01-19T11:45:41Z</time>
      </trkpt>
      <trkpt lat="45.70919" lon="4.55567">
        <ele>875.89819335938</ele>
        <time>2020-01-19T11:45:58Z</time>
      </trkpt>
      <trkpt lat="45.70924" lon="4.55563">
        <ele>874.93701171875</ele>
        <time>2020-01-19T11:46:12Z</time>
      </trkpt>
      <trkpt lat="45.70939" lon="4.55554">
        <ele>871.572265625</ele>
        <time>2020-01-19T11:46:27Z</time>
      </trkpt>
      <trkpt lat="45.70966" lon="4.55542">
        <ele>872.05297851562</ele>
        <time>2020-01-19T11:46:50Z</time>
      </trkpt>
      <trkpt lat="45.70976" lon="4.55534">
        <ele>869.16918945312</ele>
        <time>2020-01-19T11:46:59Z</time>
      </trkpt>
      <trkpt lat="45.70996" lon="4.55519">
        <ele>867.72705078125</ele>
        <time>2020-01-19T11:47:15Z</time>
      </trkpt>
      <trkpt lat="45.70998" lon="4.55518">
        <ele>866.76586914062</ele>
        <time>2020-01-19T11:47:17Z</time>
      </trkpt>
      <trkpt lat="45.71016" lon="4.55502">
        <ele>863.8818359375</ele>
        <time>2020-01-19T11:47:33Z</time>
      </trkpt>
      <trkpt lat="45.71034" lon="4.55487">
        <ele>862.43994140625</ele>
        <time>2020-01-19T11:47:50Z</time>
      </trkpt>
      <trkpt lat="45.71053" lon="4.55475">
        <ele>860.998046875</ele>
        <time>2020-01-19T11:48:06Z</time>
      </trkpt>
      <trkpt lat="45.71067" lon="4.55459">
        <ele>858.11401367188</ele>
        <time>2020-01-19T11:48:21Z</time>
      </trkpt>
      <trkpt lat="45.71069" lon="4.55456">
        <ele>857.63330078125</ele>
        <time>2020-01-19T11:48:23Z</time>
      </trkpt>
      <trkpt lat="45.71078" lon="4.55432">
        <ele>856.19116210938</ele>
        <time>2020-01-19T11:48:42Z</time>
      </trkpt>
      <trkpt lat="45.71087" lon="4.55419">
        <ele>859.55590820312</ele>
        <time>2020-01-19T11:48:55Z</time>
      </trkpt>
      <trkpt lat="45.711" lon="4.55406">
        <ele>856.19116210938</ele>
        <time>2020-01-19T11:49:06Z</time>
      </trkpt>
      <trkpt lat="45.71125" lon="4.55378">
        <ele>854.74926757812</ele>
        <time>2020-01-19T11:49:29Z</time>
      </trkpt>
      <trkpt lat="45.71137" lon="4.55366">
        <ele>858.11401367188</ele>
        <time>2020-01-19T11:49:39Z</time>
      </trkpt>
      <trkpt lat="45.71139" lon="4.55363">
        <ele>858.59448242188</ele>
        <time>2020-01-19T11:49:41Z</time>
      </trkpt>
      <trkpt lat="45.71143" lon="4.55359">
        <ele>855.71069335938</ele>
        <time>2020-01-19T11:49:44Z</time>
      </trkpt>
      <trkpt lat="45.71156" lon="4.55343">
        <ele>854.26879882812</ele>
        <time>2020-01-19T11:49:56Z</time>
      </trkpt>
      <trkpt lat="45.71162" lon="4.55337">
        <ele>850.90405273438</ele>
        <time>2020-01-19T11:50:01Z</time>
      </trkpt>
      <trkpt lat="45.71163" lon="4.55335">
        <ele>851.384765625</ele>
        <time>2020-01-19T11:50:02Z</time>
      </trkpt>
      <trkpt lat="45.71173" lon="4.55325">
        <ele>848.02026367188</ele>
        <time>2020-01-19T11:50:11Z</time>
      </trkpt>
      <trkpt lat="45.71182" lon="4.55313">
        <ele>846.57836914062</ele>
        <time>2020-01-19T11:50:19Z</time>
      </trkpt>
      <trkpt lat="45.71184" lon="4.5531">
        <ele>848.50073242188</ele>
        <time>2020-01-19T11:50:21Z</time>
      </trkpt>
      <trkpt lat="45.71189" lon="4.55303">
        <ele>847.05883789062</ele>
        <time>2020-01-19T11:50:26Z</time>
      </trkpt>
      <trkpt lat="45.71195" lon="4.55297">
        <ele>844.65551757812</ele>
        <time>2020-01-19T11:50:31Z</time>
      </trkpt>
      <trkpt lat="45.7121" lon="4.55282">
        <ele>840.81005859375</ele>
        <time>2020-01-19T11:50:44Z</time>
      </trkpt>
      <trkpt lat="45.71211" lon="4.55281">
        <ele>841.771484375</ele>
        <time>2020-01-19T11:50:45Z</time>
      </trkpt>
      <trkpt lat="45.71229" lon="4.55264">
        <ele>838.8876953125</ele>
        <time>2020-01-19T11:51:00Z</time>
      </trkpt>
      <trkpt lat="45.71246" lon="4.55242">
        <ele>835.52294921875</ele>
        <time>2020-01-19T11:51:15Z</time>
      </trkpt>
      <trkpt lat="45.71248" lon="4.55239">
        <ele>834.56176757812</ele>
        <time>2020-01-19T11:51:17Z</time>
      </trkpt>
      <trkpt lat="45.71269" lon="4.55219">
        <ele>834.0810546875</ele>
        <time>2020-01-19T11:51:35Z</time>
      </trkpt>
      <trkpt lat="45.71286" lon="4.55206">
        <ele>830.71655273438</ele>
        <time>2020-01-19T11:51:50Z</time>
      </trkpt>
      <trkpt lat="45.71293" lon="4.552">
        <ele>828.7939453125</ele>
        <time>2020-01-19T11:51:55Z</time>
      </trkpt>
      <trkpt lat="45.71316" lon="4.55178">
        <ele>827.35180664062</ele>
        <time>2020-01-19T11:52:12Z</time>
      </trkpt>
      <trkpt lat="45.71321" lon="4.55167">
        <ele>825.42895507812</ele>
        <time>2020-01-19T11:52:18Z</time>
      </trkpt>
      <trkpt lat="45.71338" lon="4.55137">
        <ele>824.4677734375</ele>
        <time>2020-01-19T11:52:36Z</time>
      </trkpt>
      <trkpt lat="45.7136" lon="4.55107">
        <ele>821.58374023438</ele>
        <time>2020-01-19T11:52:56Z</time>
      </trkpt>
      <trkpt lat="45.71367" lon="4.55099">
        <ele>820.14184570312</ele>
        <time>2020-01-19T11:53:03Z</time>
      </trkpt>
      <trkpt lat="45.71381" lon="4.5508">
        <ele>816.77734375</ele>
        <time>2020-01-19T11:53:16Z</time>
      </trkpt>
      <trkpt lat="45.71388" lon="4.55066">
        <ele>815.81616210938</ele>
        <time>2020-01-19T11:53:24Z</time>
      </trkpt>
      <trkpt lat="45.714" lon="4.55043">
        <ele>813.89331054688</ele>
        <time>2020-01-19T11:53:38Z</time>
      </trkpt>
      <trkpt lat="45.71405" lon="4.55029">
        <ele>811.48999023438</ele>
        <time>2020-01-19T11:53:46Z</time>
      </trkpt>
      <trkpt lat="45.71412" lon="4.55009">
        <ele>811.00927734375</ele>
        <time>2020-01-19T11:53:56Z</time>
      </trkpt>
      <trkpt lat="45.71423" lon="4.54986">
        <ele>809.5673828125</ele>
        <time>2020-01-19T11:54:08Z</time>
      </trkpt>
      <trkpt lat="45.71439" lon="4.54962">
        <ele>809.08666992188</ele>
        <time>2020-01-19T11:54:25Z</time>
      </trkpt>
      <trkpt lat="45.71461" lon="4.54927">
        <ele>808.12548828125</ele>
        <time>2020-01-19T11:54:46Z</time>
      </trkpt>
      <trkpt lat="45.71481" lon="4.54893">
        <ele>805.72216796875</ele>
        <time>2020-01-19T11:55:08Z</time>
      </trkpt>
      <trkpt lat="45.71482" lon="4.5489">
        <ele>807.64477539062</ele>
        <time>2020-01-19T11:55:10Z</time>
      </trkpt>
      <trkpt lat="45.71489" lon="4.54878">
        <ele>803.79956054688</ele>
        <time>2020-01-19T11:55:18Z</time>
      </trkpt>
      <trkpt lat="45.7149" lon="4.54877">
        <ele>803.31884765625</ele>
        <time>2020-01-19T11:55:19Z</time>
      </trkpt>
      <trkpt lat="45.71495" lon="4.54858">
        <ele>804.7607421875</ele>
        <time>2020-01-19T11:55:31Z</time>
      </trkpt>
      <trkpt lat="45.71495" lon="4.54857">
        <ele>802.357421875</ele>
        <time>2020-01-19T11:55:34Z</time>
      </trkpt>
      <trkpt lat="45.71498" lon="4.54854">
        <ele>804.2802734375</ele>
        <time>2020-01-19T11:55:39Z</time>
      </trkpt>
      <trkpt lat="45.71503" lon="4.54845">
        <ele>807.64477539062</ele>
        <time>2020-01-19T11:55:43Z</time>
      </trkpt>
      <trkpt lat="45.71504" lon="4.54844">
        <ele>803.79956054688</ele>
        <time>2020-01-19T11:55:44Z</time>
      </trkpt>
      <trkpt lat="45.71507" lon="4.54836">
        <ele>800.91552734375</ele>
        <time>2020-01-19T11:55:50Z</time>
      </trkpt>
      <trkpt lat="45.71523" lon="4.54799">
        <ele>799.95434570312</ele>
        <time>2020-01-19T11:56:08Z</time>
      </trkpt>
      <trkpt lat="45.71532" lon="4.54767">
        <ele>798.99291992188</ele>
        <time>2020-01-19T11:56:25Z</time>
      </trkpt>
      <trkpt lat="45.71535" lon="4.54748">
        <ele>796.10913085938</ele>
        <time>2020-01-19T11:56:36Z</time>
      </trkpt>
      <trkpt lat="45.71539" lon="4.54723">
        <ele>792.263671875</ele>
        <time>2020-01-19T11:56:49Z</time>
      </trkpt>
      <trkpt lat="45.71545" lon="4.54691">
        <ele>788.89916992188</ele>
        <time>2020-01-19T11:57:04Z</time>
      </trkpt>
      <trkpt lat="45.71546" lon="4.54664">
        <ele>785.05395507812</ele>
        <time>2020-01-19T11:57:19Z</time>
      </trkpt>
      <trkpt lat="45.71546" lon="4.54657">
        <ele>785.05395507812</ele>
        <time>2020-01-19T11:57:23Z</time>
      </trkpt>
      <trkpt lat="45.71552" lon="4.54638">
        <ele>783.13110351562</ele>
        <time>2020-01-19T11:57:32Z</time>
      </trkpt>
      <trkpt lat="45.71555" lon="4.54626">
        <ele>781.20874023438</ele>
        <time>2020-01-19T11:57:40Z</time>
      </trkpt>
      <trkpt lat="45.71558" lon="4.54605">
        <ele>777.84375</ele>
        <time>2020-01-19T11:57:54Z</time>
      </trkpt>
      <trkpt lat="45.7156" lon="4.54595">
        <ele>776.40185546875</ele>
        <time>2020-01-19T11:57:59Z</time>
      </trkpt>
      <trkpt lat="45.71563" lon="4.54573">
        <ele>773.51806640625</ele>
        <time>2020-01-19T11:58:14Z</time>
      </trkpt>
      <trkpt lat="45.71571" lon="4.54534">
        <ele>769.6728515625</ele>
        <time>2020-01-19T11:58:33Z</time>
      </trkpt>
      <trkpt lat="45.7157" lon="4.54527">
        <ele>768.71142578125</ele>
        <time>2020-01-19T11:58:48Z</time>
      </trkpt>
      <trkpt lat="45.71569" lon="4.5452">
        <ele>767.26953125</ele>
        <time>2020-01-19T11:59:06Z</time>
      </trkpt>
      <trkpt lat="45.71566" lon="4.54503">
        <ele>765.34692382812</ele>
        <time>2020-01-19T11:59:27Z</time>
      </trkpt>
      <trkpt lat="45.71566" lon="4.54501">
        <ele>764.38549804688</ele>
        <time>2020-01-19T11:59:28Z</time>
      </trkpt>
      <trkpt lat="45.71566" lon="4.54481">
        <ele>763.90454101562</ele>
        <time>2020-01-19T11:59:53Z</time>
      </trkpt>
      <trkpt lat="45.71574" lon="4.54475">
        <ele>765.34692382812</ele>
        <time>2020-01-19T12:02:11Z</time>
      </trkpt>
      <trkpt lat="45.71577" lon="4.54471">
        <ele>762.943359375</ele>
        <time>2020-01-19T12:02:36Z</time>
      </trkpt>
      <trkpt lat="45.71573" lon="4.54477">
        <ele>765.34692382812</ele>
        <time>2020-01-19T12:03:23Z</time>
      </trkpt>
      <trkpt lat="45.71573" lon="4.5449">
        <ele>765.82763671875</ele>
        <time>2020-01-19T12:03:45Z</time>
      </trkpt>
      <trkpt lat="45.71572" lon="4.54488">
        <ele>768.23071289062</ele>
        <time>2020-01-19T12:04:08Z</time>
      </trkpt>
      <trkpt lat="45.71572" lon="4.54488">
        <ele>766.30810546875</ele>
        <time>2020-01-19T12:04:14Z</time>
      </trkpt>
      <trkpt lat="45.7157" lon="4.5449">
        <ele>768.23071289062</ele>
        <time>2020-01-19T12:04:52Z</time>
      </trkpt>
      <trkpt lat="45.71568" lon="4.5449">
        <ele>767.26953125</ele>
        <time>2020-01-19T12:06:06Z</time>
      </trkpt>
      <trkpt lat="45.71568" lon="4.54486">
        <ele>768.71142578125</ele>
        <time>2020-01-19T12:08:49Z</time>
      </trkpt>
      <trkpt lat="45.71571" lon="4.54487">
        <ele>768.71142578125</ele>
        <time>2020-01-19T12:12:12Z</time>
      </trkpt>
      <trkpt lat="45.71571" lon="4.54487">
        <ele>769.6728515625</ele>
        <time>2020-01-19T12:12:25Z</time>
      </trkpt>
      <trkpt lat="45.71572" lon="4.54485">
        <ele>771.11474609375</ele>
        <time>2020-01-19T12:14:59Z</time>
      </trkpt>
      <trkpt lat="45.71571" lon="4.54494">
        <ele>772.07592773438</ele>
        <time>2020-01-19T12:16:34Z</time>
      </trkpt>
      <trkpt lat="45.7157" lon="4.54495">
        <ele>772.07592773438</ele>
        <time>2020-01-19T12:17:56Z</time>
      </trkpt>
      <trkpt lat="45.71572" lon="4.54494">
        <ele>772.556640625</ele>
        <time>2020-01-19T12:21:18Z</time>
      </trkpt>
      <trkpt lat="45.71573" lon="4.54494">
        <ele>773.51806640625</ele>
        <time>2020-01-19T12:21:27Z</time>
      </trkpt>
      <trkpt lat="45.71572" lon="4.54492">
        <ele>774.9599609375</ele>
        <time>2020-01-19T12:22:06Z</time>
      </trkpt>
      <trkpt lat="45.71572" lon="4.54492">
        <ele>774.9599609375</ele>
        <time>2020-01-19T12:22:24Z</time>
      </trkpt>
      <trkpt lat="45.71566" lon="4.54488">
        <ele>773.99853515625</ele>
        <time>2020-01-19T12:24:02Z</time>
      </trkpt>
      <trkpt lat="45.71567" lon="4.54493">
        <ele>775.92114257812</ele>
        <time>2020-01-19T12:24:59Z</time>
      </trkpt>
      <trkpt lat="45.71573" lon="4.54489">
        <ele>775.4404296875</ele>
        <time>2020-01-19T12:27:10Z</time>
      </trkpt>
      <trkpt lat="45.71575" lon="4.54488">
        <ele>776.40185546875</ele>
        <time>2020-01-19T12:27:59Z</time>
      </trkpt>
      <trkpt lat="45.71575" lon="4.54491">
        <ele>775.92114257812</ele>
        <time>2020-01-19T12:28:08Z</time>
      </trkpt>
      <trkpt lat="45.71576" lon="4.54491">
        <ele>775.4404296875</ele>
        <time>2020-01-19T12:29:15Z</time>
      </trkpt>
      <trkpt lat="45.71573" lon="4.54491">
        <ele>774.47924804688</ele>
        <time>2020-01-19T12:30:14Z</time>
      </trkpt>
      <trkpt lat="45.71572" lon="4.54491">
        <ele>777.84375</ele>
        <time>2020-01-19T12:33:24Z</time>
      </trkpt>
      <trkpt lat="45.71571" lon="4.5449">
        <ele>777.84375</ele>
        <time>2020-01-19T12:34:11Z</time>
      </trkpt>
      <trkpt lat="45.71569" lon="4.54478">
        <ele>775.4404296875</ele>
        <time>2020-01-19T12:34:49Z</time>
      </trkpt>
      <trkpt lat="45.71567" lon="4.54457">
        <ele>773.03735351562</ele>
        <time>2020-01-19T12:35:07Z</time>
      </trkpt>
      <trkpt lat="45.71568" lon="4.54443">
        <ele>769.6728515625</ele>
        <time>2020-01-19T12:35:22Z</time>
      </trkpt>
      <trkpt lat="45.7156" lon="4.54426">
        <ele>768.23071289062</ele>
        <time>2020-01-19T12:35:41Z</time>
      </trkpt>
      <trkpt lat="45.71558" lon="4.54405">
        <ele>766.78881835938</ele>
        <time>2020-01-19T12:35:55Z</time>
      </trkpt>
      <trkpt lat="45.71551" lon="4.54383">
        <ele>763.90454101562</ele>
        <time>2020-01-19T12:36:09Z</time>
      </trkpt>
      <trkpt lat="45.71548" lon="4.5437">
        <ele>762.943359375</ele>
        <time>2020-01-19T12:36:18Z</time>
      </trkpt>
      <trkpt lat="45.71548" lon="4.54342">
        <ele>758.13696289062</ele>
        <time>2020-01-19T12:36:33Z</time>
      </trkpt>
      <trkpt lat="45.71548" lon="4.54341">
        <ele>758.13696289062</ele>
        <time>2020-01-19T12:36:34Z</time>
      </trkpt>
      <trkpt lat="45.71547" lon="4.54331">
        <ele>756.69482421875</ele>
        <time>2020-01-19T12:36:39Z</time>
      </trkpt>
      <trkpt lat="45.71553" lon="4.54295">
        <ele>753.81103515625</ele>
        <time>2020-01-19T12:37:01Z</time>
      </trkpt>
      <trkpt lat="45.71556" lon="4.54292">
        <ele>753.33032226562</ele>
        <time>2020-01-19T12:37:04Z</time>
      </trkpt>
      <trkpt lat="45.71571" lon="4.54284">
        <ele>750.44653320312</ele>
        <time>2020-01-19T12:37:17Z</time>
      </trkpt>
      <trkpt lat="45.71575" lon="4.54284">
        <ele>749.48510742188</ele>
        <time>2020-01-19T12:37:21Z</time>
      </trkpt>
      <trkpt lat="45.71582" lon="4.54281">
        <ele>748.04321289062</ele>
        <time>2020-01-19T12:37:27Z</time>
      </trkpt>
      <trkpt lat="45.71586" lon="4.5428">
        <ele>749.48510742188</ele>
        <time>2020-01-19T12:37:30Z</time>
      </trkpt>
      <trkpt lat="45.71604" lon="4.54279">
        <ele>748.04321289062</ele>
        <time>2020-01-19T12:37:47Z</time>
      </trkpt>
      <trkpt lat="45.7161" lon="4.54282">
        <ele>744.67822265625</ele>
        <time>2020-01-19T12:37:53Z</time>
      </trkpt>
      <trkpt lat="45.7162" lon="4.54287">
        <ele>741.31372070312</ele>
        <time>2020-01-19T12:38:04Z</time>
      </trkpt>
      <trkpt lat="45.71632" lon="4.54294">
        <ele>737.46850585938</ele>
        <time>2020-01-19T12:38:15Z</time>
      </trkpt>
      <trkpt lat="45.71636" lon="4.54297">
        <ele>737.46850585938</ele>
        <time>2020-01-19T12:38:20Z</time>
      </trkpt>
      <trkpt lat="45.71644" lon="4.54306">
        <ele>734.10400390625</ele>
        <time>2020-01-19T12:38:29Z</time>
      </trkpt>
      <trkpt lat="45.71654" lon="4.54324">
        <ele>730.7392578125</ele>
        <time>2020-01-19T12:38:43Z</time>
      </trkpt>
      <trkpt lat="45.71656" lon="4.54327">
        <ele>731.21997070312</ele>
        <time>2020-01-19T12:38:45Z</time>
      </trkpt>
      <trkpt lat="45.7167" lon="4.54351">
        <ele>726.89404296875</ele>
        <time>2020-01-19T12:38:59Z</time>
      </trkpt>
      <trkpt lat="45.71681" lon="4.54368">
        <ele>723.52954101562</ele>
        <time>2020-01-19T12:39:11Z</time>
      </trkpt>
      <trkpt lat="45.71682" lon="4.54369">
        <ele>723.048828125</ele>
        <time>2020-01-19T12:39:12Z</time>
      </trkpt>
      <trkpt lat="45.71691" lon="4.54382">
        <ele>719.68432617188</ele>
        <time>2020-01-19T12:39:22Z</time>
      </trkpt>
      <trkpt lat="45.71712" lon="4.54403">
        <ele>716.80029296875</ele>
        <time>2020-01-19T12:39:44Z</time>
      </trkpt>
      <trkpt lat="45.71727" lon="4.54417">
        <ele>713.916015625</ele>
        <time>2020-01-19T12:39:59Z</time>
      </trkpt>
      <trkpt lat="45.71741" lon="4.54431">
        <ele>710.55151367188</ele>
        <time>2020-01-19T12:40:12Z</time>
      </trkpt>
      <trkpt lat="45.71758" lon="4.54447">
        <ele>707.66772460938</ele>
        <time>2020-01-19T12:40:28Z</time>
      </trkpt>
      <trkpt lat="45.71767" lon="4.54452">
        <ele>706.2255859375</ele>
        <time>2020-01-19T12:40:32Z</time>
      </trkpt>
      <trkpt lat="45.71781" lon="4.54458">
        <ele>703.341796875</ele>
        <time>2020-01-19T12:40:43Z</time>
      </trkpt>
      <trkpt lat="45.71788" lon="4.5446">
        <ele>701.41918945312</ele>
        <time>2020-01-19T12:40:50Z</time>
      </trkpt>
      <trkpt lat="45.71797" lon="4.54463">
        <ele>699.015625</ele>
        <time>2020-01-19T12:40:58Z</time>
      </trkpt>
      <trkpt lat="45.71809" lon="4.54462">
        <ele>698.05444335938</ele>
        <time>2020-01-19T12:41:07Z</time>
      </trkpt>
      <trkpt lat="45.71816" lon="4.54473">
        <ele>694.68969726562</ele>
        <time>2020-01-19T12:41:16Z</time>
      </trkpt>
      <trkpt lat="45.71818" lon="4.54474">
        <ele>694.20922851562</ele>
        <time>2020-01-19T12:41:18Z</time>
      </trkpt>
      <trkpt lat="45.71828" lon="4.5448">
        <ele>691.80590820312</ele>
        <time>2020-01-19T12:41:28Z</time>
      </trkpt>
      <trkpt lat="45.71839" lon="4.54485">
        <ele>689.88330078125</ele>
        <time>2020-01-19T12:41:37Z</time>
      </trkpt>
      <trkpt lat="45.7185" lon="4.54488">
        <ele>686.51879882812</ele>
        <time>2020-01-19T12:41:47Z</time>
      </trkpt>
      <trkpt lat="45.71865" lon="4.54494">
        <ele>683.63452148438</ele>
        <time>2020-01-19T12:41:56Z</time>
      </trkpt>
      <trkpt lat="45.71873" lon="4.54498">
        <ele>682.67333984375</ele>
        <time>2020-01-19T12:42:01Z</time>
      </trkpt>
      <trkpt lat="45.71881" lon="4.54503">
        <ele>681.2314453125</ele>
        <time>2020-01-19T12:42:05Z</time>
      </trkpt>
      <trkpt lat="45.71892" lon="4.54526">
        <ele>676.90551757812</ele>
        <time>2020-01-19T12:42:16Z</time>
      </trkpt>
      <trkpt lat="45.71893" lon="4.54528">
        <ele>676.90551757812</ele>
        <time>2020-01-19T12:42:17Z</time>
      </trkpt>
      <trkpt lat="45.71897" lon="4.54533">
        <ele>674.021484375</ele>
        <time>2020-01-19T12:42:25Z</time>
      </trkpt>
      <trkpt lat="45.71898" lon="4.54531">
        <ele>673.06030273438</ele>
        <time>2020-01-19T12:42:29Z</time>
      </trkpt>
      <trkpt lat="45.71905" lon="4.54521">
        <ele>670.65698242188</ele>
        <time>2020-01-19T12:42:37Z</time>
      </trkpt>
      <trkpt lat="45.71905" lon="4.54519">
        <ele>670.17626953125</ele>
        <time>2020-01-19T12:42:38Z</time>
      </trkpt>
      <trkpt lat="45.7191" lon="4.54511">
        <ele>668.25366210938</ele>
        <time>2020-01-19T12:42:44Z</time>
      </trkpt>
      <trkpt lat="45.71918" lon="4.54504">
        <ele>666.8115234375</ele>
        <time>2020-01-19T12:42:51Z</time>
      </trkpt>
      <trkpt lat="45.71933" lon="4.54519">
        <ele>662.00512695312</ele>
        <time>2020-01-19T12:43:06Z</time>
      </trkpt>
      <trkpt lat="45.71943" lon="4.54526">
        <ele>659.60180664062</ele>
        <time>2020-01-19T12:43:16Z</time>
      </trkpt>
      <trkpt lat="45.71951" lon="4.54541">
        <ele>658.64038085938</ele>
        <time>2020-01-19T12:43:26Z</time>
      </trkpt>
      <trkpt lat="45.71956" lon="4.5456">
        <ele>657.19848632812</ele>
        <time>2020-01-19T12:43:34Z</time>
      </trkpt>
      <trkpt lat="45.7196" lon="4.54569">
        <ele>655.27587890625</ele>
        <time>2020-01-19T12:43:38Z</time>
      </trkpt>
      <trkpt lat="45.71976" lon="4.5459">
        <ele>654.79516601562</ele>
        <time>2020-01-19T12:43:54Z</time>
      </trkpt>
      <trkpt lat="45.7198" lon="4.54588">
        <ele>653.833984375</ele>
        <time>2020-01-19T12:43:58Z</time>
      </trkpt>
      <trkpt lat="45.71983" lon="4.54586">
        <ele>654.79516601562</ele>
        <time>2020-01-19T12:44:03Z</time>
      </trkpt>
      <trkpt lat="45.72005" lon="4.5458">
        <ele>654.31469726562</ele>
        <time>2020-01-19T12:44:26Z</time>
      </trkpt>
      <trkpt lat="45.72011" lon="4.54578">
        <ele>652.39184570312</ele>
        <time>2020-01-19T12:44:31Z</time>
      </trkpt>
      <trkpt lat="45.72022" lon="4.54584">
        <ele>653.35327148438</ele>
        <time>2020-01-19T12:44:37Z</time>
      </trkpt>
      <trkpt lat="45.72033" lon="4.54586">
        <ele>652.87255859375</ele>
        <time>2020-01-19T12:44:52Z</time>
      </trkpt>
      <trkpt lat="45.72035" lon="4.54589">
        <ele>653.35327148438</ele>
        <time>2020-01-19T12:45:00Z</time>
      </trkpt>
      <trkpt lat="45.72061" lon="4.54604">
        <ele>655.75659179688</ele>
        <time>2020-01-19T12:45:16Z</time>
      </trkpt>
      <trkpt lat="45.72084" lon="4.54622">
        <ele>658.64038085938</ele>
        <time>2020-01-19T12:45:34Z</time>
      </trkpt>
      <trkpt lat="45.72108" lon="4.54634">
        <ele>660.08227539062</ele>
        <time>2020-01-19T12:45:53Z</time>
      </trkpt>
      <trkpt lat="45.72126" lon="4.54643">
        <ele>662.48559570312</ele>
        <time>2020-01-19T12:46:06Z</time>
      </trkpt>
      <trkpt lat="45.72146" lon="4.54664">
        <ele>662.00512695312</ele>
        <time>2020-01-19T12:46:25Z</time>
      </trkpt>
      <trkpt lat="45.72165" lon="4.54692">
        <ele>663.44702148438</ele>
        <time>2020-01-19T12:46:45Z</time>
      </trkpt>
      <trkpt lat="45.7218" lon="4.54719">
        <ele>666.8115234375</ele>
        <time>2020-01-19T12:47:05Z</time>
      </trkpt>
      <trkpt lat="45.7218" lon="4.5472">
        <ele>666.8115234375</ele>
        <time>2020-01-19T12:47:06Z</time>
      </trkpt>
      <trkpt lat="45.72187" lon="4.5473">
        <ele>670.17626953125</ele>
        <time>2020-01-19T12:47:15Z</time>
      </trkpt>
      <trkpt lat="45.72188" lon="4.5473">
        <ele>670.17626953125</ele>
        <time>2020-01-19T12:47:16Z</time>
      </trkpt>
      <trkpt lat="45.72204" lon="4.54742">
        <ele>670.65698242188</ele>
        <time>2020-01-19T12:47:32Z</time>
      </trkpt>
      <trkpt lat="45.7222" lon="4.54759">
        <ele>671.1376953125</ele>
        <time>2020-01-19T12:47:49Z</time>
      </trkpt>
      <trkpt lat="45.72236" lon="4.54778">
        <ele>671.1376953125</ele>
        <time>2020-01-19T12:48:06Z</time>
      </trkpt>
      <trkpt lat="45.72252" lon="4.548">
        <ele>672.57958984375</ele>
        <time>2020-01-19T12:48:23Z</time>
      </trkpt>
      <trkpt lat="45.72265" lon="4.54823">
        <ele>674.021484375</ele>
        <time>2020-01-19T12:48:40Z</time>
      </trkpt>
      <trkpt lat="45.72275" lon="4.54837">
        <ele>671.1376953125</ele>
        <time>2020-01-19T12:48:51Z</time>
      </trkpt>
      <trkpt lat="45.72289" lon="4.5485">
        <ele>671.1376953125</ele>
        <time>2020-01-19T12:49:03Z</time>
      </trkpt>
      <trkpt lat="45.72303" lon="4.54862">
        <ele>670.65698242188</ele>
        <time>2020-01-19T12:49:16Z</time>
      </trkpt>
      <trkpt lat="45.72325" lon="4.54875">
        <ele>672.09887695312</ele>
        <time>2020-01-19T12:49:33Z</time>
      </trkpt>
      <trkpt lat="45.72336" lon="4.54879">
        <ele>674.021484375</ele>
        <time>2020-01-19T12:49:42Z</time>
      </trkpt>
      <trkpt lat="45.72341" lon="4.54881">
        <ele>674.98291015625</ele>
        <time>2020-01-19T12:49:46Z</time>
      </trkpt>
      <trkpt lat="45.72365" lon="4.5489">
        <ele>671.1376953125</ele>
        <time>2020-01-19T12:50:04Z</time>
      </trkpt>
      <trkpt lat="45.72371" lon="4.5489">
        <ele>671.1376953125</ele>
        <time>2020-01-19T12:50:09Z</time>
      </trkpt>
      <trkpt lat="45.72376" lon="4.54892">
        <ele>670.65698242188</ele>
        <time>2020-01-19T12:50:13Z</time>
      </trkpt>
      <trkpt lat="45.72387" lon="4.54896">
        <ele>671.6181640625</ele>
        <time>2020-01-19T12:50:23Z</time>
      </trkpt>
      <trkpt lat="45.72395" lon="4.54899">
        <ele>673.541015625</ele>
        <time>2020-01-19T12:50:40Z</time>
      </trkpt>
      <trkpt lat="45.72417" lon="4.54911">
        <ele>674.021484375</ele>
        <time>2020-01-19T12:50:56Z</time>
      </trkpt>
      <trkpt lat="45.72429" lon="4.54919">
        <ele>674.98291015625</ele>
        <time>2020-01-19T12:51:08Z</time>
      </trkpt>
      <trkpt lat="45.72429" lon="4.54919">
        <ele>676.4248046875</ele>
        <time>2020-01-19T12:51:10Z</time>
      </trkpt>
      <trkpt lat="45.72432" lon="4.54919">
        <ele>673.06030273438</ele>
        <time>2020-01-19T12:51:14Z</time>
      </trkpt>
      <trkpt lat="45.72437" lon="4.54922">
        <ele>675.46337890625</ele>
        <time>2020-01-19T12:51:18Z</time>
      </trkpt>
      <trkpt lat="45.72446" lon="4.54927">
        <ele>676.90551757812</ele>
        <time>2020-01-19T12:51:29Z</time>
      </trkpt>
      <trkpt lat="45.7245" lon="4.54926">
        <ele>673.06030273438</ele>
        <time>2020-01-19T12:51:32Z</time>
      </trkpt>
      <trkpt lat="45.72461" lon="4.54926">
        <ele>674.021484375</ele>
        <time>2020-01-19T12:51:39Z</time>
      </trkpt>
      <trkpt lat="45.72485" lon="4.54931">
        <ele>673.541015625</ele>
        <time>2020-01-19T12:51:55Z</time>
      </trkpt>
      <trkpt lat="45.72487" lon="4.54932">
        <ele>672.57958984375</ele>
        <time>2020-01-19T12:51:57Z</time>
      </trkpt>
      <trkpt lat="45.72502" lon="4.54936">
        <ele>674.50219726562</ele>
        <time>2020-01-19T12:52:08Z</time>
      </trkpt>
      <trkpt lat="45.72507" lon="4.54936">
        <ele>675.94409179688</ele>
        <time>2020-01-19T12:52:12Z</time>
      </trkpt>
      <trkpt lat="45.72519" lon="4.54937">
        <ele>676.90551757812</ele>
        <time>2020-01-19T12:52:20Z</time>
      </trkpt>
      <trkpt lat="45.72546" lon="4.54942">
        <ele>678.34741210938</ele>
        <time>2020-01-19T12:52:37Z</time>
      </trkpt>
      <trkpt lat="45.72562" lon="4.54942">
        <ele>674.98291015625</ele>
        <time>2020-01-19T12:52:47Z</time>
      </trkpt>
      <trkpt lat="45.72579" lon="4.54932">
        <ele>676.90551757812</ele>
        <time>2020-01-19T12:53:02Z</time>
      </trkpt>
      <trkpt lat="45.72589" lon="4.54911">
        <ele>678.828125</ele>
        <time>2020-01-19T12:53:15Z</time>
      </trkpt>
      <trkpt lat="45.72598" lon="4.54888">
        <ele>679.78930664062</ele>
        <time>2020-01-19T12:53:31Z</time>
      </trkpt>
      <trkpt lat="45.72597" lon="4.5489">
        <ele>679.30859375</ele>
        <time>2020-01-19T12:53:38Z</time>
      </trkpt>
      <trkpt lat="45.72596" lon="4.54888">
        <ele>677.86669921875</ele>
        <time>2020-01-19T12:53:40Z</time>
      </trkpt>
      <trkpt lat="45.72584" lon="4.54874">
        <ele>677.38623046875</ele>
        <time>2020-01-19T12:53:54Z</time>
      </trkpt>
      <trkpt lat="45.72576" lon="4.54862">
        <ele>677.86669921875</ele>
        <time>2020-01-19T12:54:03Z</time>
      </trkpt>
      <trkpt lat="45.72564" lon="4.54845">
        <ele>674.50219726562</ele>
        <time>2020-01-19T12:54:17Z</time>
      </trkpt>
      <trkpt lat="45.72553" lon="4.54818">
        <ele>671.6181640625</ele>
        <time>2020-01-19T12:54:34Z</time>
      </trkpt>
      <trkpt lat="45.72543" lon="4.54799">
        <ele>669.69580078125</ele>
        <time>2020-01-19T12:54:47Z</time>
      </trkpt>
      <trkpt lat="45.72532" lon="4.54778">
        <ele>667.29223632812</ele>
        <time>2020-01-19T12:55:02Z</time>
      </trkpt>
      <trkpt lat="45.72523" lon="4.54757">
        <ele>665.85034179688</ele>
        <time>2020-01-19T12:55:14Z</time>
      </trkpt>
      <trkpt lat="45.72509" lon="4.54742">
        <ele>663.92749023438</ele>
        <time>2020-01-19T12:55:27Z</time>
      </trkpt>
      <trkpt lat="45.72496" lon="4.54723">
        <ele>660.56298828125</ele>
        <time>2020-01-19T12:55:41Z</time>
      </trkpt>
      <trkpt lat="45.7249" lon="4.54701">
        <ele>657.19848632812</ele>
        <time>2020-01-19T12:55:54Z</time>
      </trkpt>
      <trkpt lat="45.72485" lon="4.54683">
        <ele>654.31469726562</ele>
        <time>2020-01-19T12:56:03Z</time>
      </trkpt>
      <trkpt lat="45.72484" lon="4.54681">
        <ele>654.31469726562</ele>
        <time>2020-01-19T12:56:04Z</time>
      </trkpt>
      <trkpt lat="45.72481" lon="4.5467">
        <ele>652.39184570312</ele>
        <time>2020-01-19T12:56:15Z</time>
      </trkpt>
      <trkpt lat="45.72483" lon="4.54652">
        <ele>651.9111328125</ele>
        <time>2020-01-19T12:56:26Z</time>
      </trkpt>
      <trkpt lat="45.72488" lon="4.5463">
        <ele>650.94970703125</ele>
        <time>2020-01-19T12:56:38Z</time>
      </trkpt>
      <trkpt lat="45.72498" lon="4.5459">
        <ele>649.5078125</ele>
        <time>2020-01-19T12:56:58Z</time>
      </trkpt>
      <trkpt lat="45.725" lon="4.54579">
        <ele>646.14331054688</ele>
        <time>2020-01-19T12:57:04Z</time>
      </trkpt>
      <trkpt lat="45.72503" lon="4.54563">
        <ele>649.5078125</ele>
        <time>2020-01-19T12:57:13Z</time>
      </trkpt>
      <trkpt lat="45.72502" lon="4.54535">
        <ele>649.02709960938</ele>
        <time>2020-01-19T12:57:28Z</time>
      </trkpt>
      <trkpt lat="45.72498" lon="4.54527">
        <ele>647.58520507812</ele>
        <time>2020-01-19T12:57:42Z</time>
      </trkpt>
      <trkpt lat="45.725" lon="4.54519">
        <ele>648.54638671875</ele>
        <time>2020-01-19T12:57:50Z</time>
      </trkpt>
      <trkpt lat="45.72492" lon="4.54488">
        <ele>650.94970703125</ele>
        <time>2020-01-19T12:58:08Z</time>
      </trkpt>
      <trkpt lat="45.72486" lon="4.54464">
        <ele>651.9111328125</ele>
        <time>2020-01-19T12:58:20Z</time>
      </trkpt>
      <trkpt lat="45.72476" lon="4.54437">
        <ele>652.87255859375</ele>
        <time>2020-01-19T12:58:36Z</time>
      </trkpt>
      <trkpt lat="45.72468" lon="4.54414">
        <ele>655.27587890625</ele>
        <time>2020-01-19T12:58:50Z</time>
      </trkpt>
      <trkpt lat="45.72464" lon="4.54403">
        <ele>655.27587890625</ele>
        <time>2020-01-19T12:58:57Z</time>
      </trkpt>
      <trkpt lat="45.72463" lon="4.54399">
        <ele>656.23706054688</ele>
        <time>2020-01-19T12:58:59Z</time>
      </trkpt>
      <trkpt lat="45.72461" lon="4.54383">
        <ele>655.27587890625</ele>
        <time>2020-01-19T12:59:08Z</time>
      </trkpt>
      <trkpt lat="45.7246" lon="4.54372">
        <ele>651.9111328125</ele>
        <time>2020-01-19T12:59:14Z</time>
      </trkpt>
      <trkpt lat="45.7246" lon="4.54343">
        <ele>654.31469726562</ele>
        <time>2020-01-19T12:59:30Z</time>
      </trkpt>
      <trkpt lat="45.72461" lon="4.54309">
        <ele>650.46923828125</ele>
        <time>2020-01-19T12:59:47Z</time>
      </trkpt>
      <trkpt lat="45.72463" lon="4.54283">
        <ele>644.701171875</ele>
        <time>2020-01-19T13:00:01Z</time>
      </trkpt>
      <trkpt lat="45.72463" lon="4.54281">
        <ele>646.14331054688</ele>
        <time>2020-01-19T13:00:02Z</time>
      </trkpt>
      <trkpt lat="45.72463" lon="4.54271">
        <ele>648.54638671875</ele>
        <time>2020-01-19T13:00:07Z</time>
      </trkpt>
      <trkpt lat="45.72462" lon="4.54246">
        <ele>649.5078125</ele>
        <time>2020-01-19T13:00:19Z</time>
      </trkpt>
      <trkpt lat="45.72459" lon="4.54213">
        <ele>649.5078125</ele>
        <time>2020-01-19T13:00:35Z</time>
      </trkpt>
      <trkpt lat="45.72459" lon="4.54211">
        <ele>649.5078125</ele>
        <time>2020-01-19T13:00:36Z</time>
      </trkpt>
      <trkpt lat="45.72453" lon="4.54177">
        <ele>648.54638671875</ele>
        <time>2020-01-19T13:00:51Z</time>
      </trkpt>
      <trkpt lat="45.72452" lon="4.54172">
        <ele>649.98852539062</ele>
        <time>2020-01-19T13:00:53Z</time>
      </trkpt>
      <trkpt lat="45.72448" lon="4.54144">
        <ele>647.58520507812</ele>
        <time>2020-01-19T13:01:07Z</time>
      </trkpt>
      <trkpt lat="45.72445" lon="4.54133">
        <ele>649.02709960938</ele>
        <time>2020-01-19T13:01:14Z</time>
      </trkpt>
      <trkpt lat="45.72437" lon="4.54107">
        <ele>649.98852539062</ele>
        <time>2020-01-19T13:01:27Z</time>
      </trkpt>
      <trkpt lat="45.7243" lon="4.54083">
        <ele>651.43041992188</ele>
        <time>2020-01-19T13:01:40Z</time>
      </trkpt>
      <trkpt lat="45.72419" lon="4.54064">
        <ele>648.06591796875</ele>
        <time>2020-01-19T13:01:50Z</time>
      </trkpt>
      <trkpt lat="45.72413" lon="4.5404">
        <ele>647.1044921875</ele>
        <time>2020-01-19T13:02:04Z</time>
      </trkpt>
      <trkpt lat="45.72406" lon="4.54022">
        <ele>649.98852539062</ele>
        <time>2020-01-19T13:02:13Z</time>
      </trkpt>
      <trkpt lat="45.72405" lon="4.54014">
        <ele>646.6240234375</ele>
        <time>2020-01-19T13:02:17Z</time>
      </trkpt>
      <trkpt lat="45.72402" lon="4.53986">
        <ele>646.6240234375</ele>
        <time>2020-01-19T13:02:29Z</time>
      </trkpt>
      <trkpt lat="45.72397" lon="4.53959">
        <ele>646.14331054688</ele>
        <time>2020-01-19T13:02:43Z</time>
      </trkpt>
      <trkpt lat="45.72387" lon="4.53932">
        <ele>644.220703125</ele>
        <time>2020-01-19T13:02:58Z</time>
      </trkpt>
      <trkpt lat="45.72379" lon="4.53921">
        <ele>643.25927734375</ele>
        <time>2020-01-19T13:03:05Z</time>
      </trkpt>
      <trkpt lat="45.72373" lon="4.53911">
        <ele>645.18188476562</ele>
        <time>2020-01-19T13:03:11Z</time>
      </trkpt>
      <trkpt lat="45.72357" lon="4.53889">
        <ele>645.66259765625</ele>
        <time>2020-01-19T13:03:28Z</time>
      </trkpt>
      <trkpt lat="45.72343" lon="4.5386">
        <ele>647.1044921875</ele>
        <time>2020-01-19T13:03:45Z</time>
      </trkpt>
      <trkpt lat="45.72331" lon="4.53838">
        <ele>645.66259765625</ele>
        <time>2020-01-19T13:03:59Z</time>
      </trkpt>
      <trkpt lat="45.72329" lon="4.53819">
        <ele>643.73999023438</ele>
        <time>2020-01-19T13:04:10Z</time>
      </trkpt>
      <trkpt lat="45.72325" lon="4.53806">
        <ele>642.29809570312</ele>
        <time>2020-01-19T13:04:17Z</time>
      </trkpt>
      <trkpt lat="45.72318" lon="4.53779">
        <ele>640.85595703125</ele>
        <time>2020-01-19T13:04:30Z</time>
      </trkpt>
      <trkpt lat="45.72315" lon="4.53747">
        <ele>639.4140625</ele>
        <time>2020-01-19T13:04:45Z</time>
      </trkpt>
      <trkpt lat="45.72311" lon="4.53722">
        <ele>636.5302734375</ele>
        <time>2020-01-19T13:04:57Z</time>
      </trkpt>
      <trkpt lat="45.72307" lon="4.53696">
        <ele>635.56860351562</ele>
        <time>2020-01-19T13:05:10Z</time>
      </trkpt>
      <trkpt lat="45.72296" lon="4.53668">
        <ele>633.64599609375</ele>
        <time>2020-01-19T13:05:25Z</time>
      </trkpt>
      <trkpt lat="45.72291" lon="4.5365">
        <ele>632.68481445312</ele>
        <time>2020-01-19T13:05:33Z</time>
      </trkpt>
      <trkpt lat="45.72284" lon="4.53626">
        <ele>633.16528320312</ele>
        <time>2020-01-19T13:05:46Z</time>
      </trkpt>
      <trkpt lat="45.72284" lon="4.53622">
        <ele>634.607421875</ele>
        <time>2020-01-19T13:05:48Z</time>
      </trkpt>
      <trkpt lat="45.7228" lon="4.53607">
        <ele>632.68481445312</ele>
        <time>2020-01-19T13:05:55Z</time>
      </trkpt>
      <trkpt lat="45.72275" lon="4.53579">
        <ele>633.16528320312</ele>
        <time>2020-01-19T13:06:09Z</time>
      </trkpt>
      <trkpt lat="45.72274" lon="4.53573">
        <ele>629.80078125</ele>
        <time>2020-01-19T13:06:13Z</time>
      </trkpt>
      <trkpt lat="45.72272" lon="4.53568">
        <ele>630.76220703125</ele>
        <time>2020-01-19T13:06:19Z</time>
      </trkpt>
      <trkpt lat="45.72269" lon="4.53565">
        <ele>630.28149414062</ele>
        <time>2020-01-19T13:06:23Z</time>
      </trkpt>
      <trkpt lat="45.72264" lon="4.53567">
        <ele>626.43627929688</ele>
        <time>2020-01-19T13:06:34Z</time>
      </trkpt>
      <trkpt lat="45.72264" lon="4.53568">
        <ele>629.80078125</ele>
        <time>2020-01-19T13:06:42Z</time>
      </trkpt>
      <trkpt lat="45.72263" lon="4.53568">
        <ele>627.39770507812</ele>
        <time>2020-01-19T13:07:00Z</time>
      </trkpt>
      <trkpt lat="45.72263" lon="4.53568">
        <ele>626.9169921875</ele>
        <time>2020-01-19T13:07:09Z</time>
      </trkpt>
      <trkpt lat="45.72263" lon="4.53569">
        <ele>626.9169921875</ele>
        <time>2020-01-19T13:07:12Z</time>
      </trkpt>
      <trkpt lat="45.72255" lon="4.53594">
        <ele>625.95556640625</ele>
        <time>2020-01-19T13:07:27Z</time>
      </trkpt>
      <trkpt lat="45.72255" lon="4.5361">
        <ele>623.55249023438</ele>
        <time>2020-01-19T13:07:35Z</time>
      </trkpt>
      <trkpt lat="45.72256" lon="4.53632">
        <ele>624.513671875</ele>
        <time>2020-01-19T13:07:45Z</time>
      </trkpt>
      <trkpt lat="45.72256" lon="4.53653">
        <ele>623.07177734375</ele>
        <time>2020-01-19T13:07:57Z</time>
      </trkpt>
      <trkpt lat="45.72262" lon="4.53678">
        <ele>621.62963867188</ele>
        <time>2020-01-19T13:08:09Z</time>
      </trkpt>
      <trkpt lat="45.72262" lon="4.53707">
        <ele>620.18774414062</ele>
        <time>2020-01-19T13:08:24Z</time>
      </trkpt>
      <trkpt lat="45.72262" lon="4.53715">
        <ele>621.14916992188</ele>
        <time>2020-01-19T13:08:27Z</time>
      </trkpt>
      <trkpt lat="45.72259" lon="4.53727">
        <ele>621.14916992188</ele>
        <time>2020-01-19T13:08:39Z</time>
      </trkpt>
      <trkpt lat="45.72259" lon="4.53728">
        <ele>620.66845703125</ele>
        <time>2020-01-19T13:08:44Z</time>
      </trkpt>
      <trkpt lat="45.72254" lon="4.53758">
        <ele>620.66845703125</ele>
        <time>2020-01-19T13:08:59Z</time>
      </trkpt>
      <trkpt lat="45.72239" lon="4.538">
        <ele>621.62963867188</ele>
        <time>2020-01-19T13:09:22Z</time>
      </trkpt>
      <trkpt lat="45.72231" lon="4.53845">
        <ele>622.1103515625</ele>
        <time>2020-01-19T13:09:46Z</time>
      </trkpt>
      <trkpt lat="45.72229" lon="4.53878">
        <ele>621.14916992188</ele>
        <time>2020-01-19T13:10:02Z</time>
      </trkpt>
      <trkpt lat="45.72227" lon="4.53893">
        <ele>621.62963867188</ele>
        <time>2020-01-19T13:10:12Z</time>
      </trkpt>
      <trkpt lat="45.72225" lon="4.53913">
        <ele>620.18774414062</ele>
        <time>2020-01-19T13:10:22Z</time>
      </trkpt>
      <trkpt lat="45.72223" lon="4.53919">
        <ele>618.74560546875</ele>
        <time>2020-01-19T13:10:24Z</time>
      </trkpt>
      <trkpt lat="45.72221" lon="4.53932">
        <ele>617.3037109375</ele>
        <time>2020-01-19T13:10:32Z</time>
      </trkpt>
      <trkpt lat="45.72217" lon="4.53939">
        <ele>616.34228515625</ele>
        <time>2020-01-19T13:10:35Z</time>
      </trkpt>
      <trkpt lat="45.72216" lon="4.53944">
        <ele>614.900390625</ele>
        <time>2020-01-19T13:10:40Z</time>
      </trkpt>
      <trkpt lat="45.72214" lon="4.53947">
        <ele>614.900390625</ele>
        <time>2020-01-19T13:10:42Z</time>
      </trkpt>
      <trkpt lat="45.72213" lon="4.53951">
        <ele>613.93896484375</ele>
        <time>2020-01-19T13:10:44Z</time>
      </trkpt>
      <trkpt lat="45.72211" lon="4.53973">
        <ele>612.0166015625</ele>
        <time>2020-01-19T13:10:55Z</time>
      </trkpt>
      <trkpt lat="45.7221" lon="4.5399">
        <ele>608.65185546875</ele>
        <time>2020-01-19T13:11:04Z</time>
      </trkpt>
      <trkpt lat="45.72209" lon="4.53995">
        <ele>607.2099609375</ele>
        <time>2020-01-19T13:11:08Z</time>
      </trkpt>
      <trkpt lat="45.72206" lon="4.53991">
        <ele>607.69067382812</ele>
        <time>2020-01-19T13:11:14Z</time>
      </trkpt>
      <trkpt lat="45.72201" lon="4.53984">
        <ele>605.28735351562</ele>
        <time>2020-01-19T13:11:27Z</time>
      </trkpt>
      <trkpt lat="45.722" lon="4.53983">
        <ele>605.76806640625</ele>
        <time>2020-01-19T13:11:30Z</time>
      </trkpt>
      <trkpt lat="45.72191" lon="4.53958">
        <ele>607.2099609375</ele>
        <time>2020-01-19T13:11:45Z</time>
      </trkpt>
      <trkpt lat="45.72186" lon="4.53945">
        <ele>606.24853515625</ele>
        <time>2020-01-19T13:12:00Z</time>
      </trkpt>
      <trkpt lat="45.72187" lon="4.53953">
        <ele>606.72924804688</ele>
        <time>2020-01-19T13:12:13Z</time>
      </trkpt>
      <trkpt lat="45.72187" lon="4.53954">
        <ele>605.76806640625</ele>
        <time>2020-01-19T13:12:14Z</time>
      </trkpt>
      <trkpt lat="45.72189" lon="4.53963">
        <ele>607.2099609375</ele>
        <time>2020-01-19T13:12:20Z</time>
      </trkpt>
      <trkpt lat="45.72189" lon="4.53967">
        <ele>606.24853515625</ele>
        <time>2020-01-19T13:12:22Z</time>
      </trkpt>
      <trkpt lat="45.72191" lon="4.53982">
        <ele>605.76806640625</ele>
        <time>2020-01-19T13:12:36Z</time>
      </trkpt>
      <trkpt lat="45.72206" lon="4.53995">
        <ele>607.2099609375</ele>
        <time>2020-01-19T13:12:55Z</time>
      </trkpt>
      <trkpt lat="45.72218" lon="4.54024">
        <ele>607.2099609375</ele>
        <time>2020-01-19T13:13:15Z</time>
      </trkpt>
      <trkpt lat="45.72236" lon="4.54042">
        <ele>606.24853515625</ele>
        <time>2020-01-19T13:13:33Z</time>
      </trkpt>
      <trkpt lat="45.7224" lon="4.5405">
        <ele>604.806640625</ele>
        <time>2020-01-19T13:13:39Z</time>
      </trkpt>
      <trkpt lat="45.72246" lon="4.54055">
        <ele>605.28735351562</ele>
        <time>2020-01-19T13:13:43Z</time>
      </trkpt>
      <trkpt lat="45.72242" lon="4.54062">
        <ele>606.24853515625</ele>
        <time>2020-01-19T13:13:48Z</time>
      </trkpt>
      <trkpt lat="45.72236" lon="4.54067">
        <ele>604.326171875</ele>
        <time>2020-01-19T13:13:53Z</time>
      </trkpt>
      <trkpt lat="45.72216" lon="4.54084">
        <ele>601.44189453125</ele>
        <time>2020-01-19T13:14:05Z</time>
      </trkpt>
      <trkpt lat="45.72208" lon="4.54084">
        <ele>600.48071289062</ele>
        <time>2020-01-19T13:14:08Z</time>
      </trkpt>
      <trkpt lat="45.72183" lon="4.5409">
        <ele>598.55786132812</ele>
        <time>2020-01-19T13:14:25Z</time>
      </trkpt>
      <trkpt lat="45.72176" lon="4.54111">
        <ele>599.51928710938</ele>
        <time>2020-01-19T13:14:40Z</time>
      </trkpt>
      <trkpt lat="45.72169" lon="4.54129">
        <ele>598.55786132812</ele>
        <time>2020-01-19T13:14:58Z</time>
      </trkpt>
      <trkpt lat="45.72169" lon="4.5413">
        <ele>599.03857421875</ele>
        <time>2020-01-19T13:14:59Z</time>
      </trkpt>
      <trkpt lat="45.72171" lon="4.5414">
        <ele>600</ele>
        <time>2020-01-19T13:15:23Z</time>
      </trkpt>
      <trkpt lat="45.72171" lon="4.5414">
        <ele>600</ele>
        <time>2020-01-19T13:15:28Z</time>
      </trkpt>
      <trkpt lat="45.72171" lon="4.54144">
        <ele>600.48071289062</ele>
        <time>2020-01-19T13:15:54Z</time>
      </trkpt>
      <trkpt lat="45.72172" lon="4.54142">
        <ele>601.44189453125</ele>
        <time>2020-01-19T13:16:26Z</time>
      </trkpt>
      <trkpt lat="45.72189" lon="4.54109">
        <ele>598.07739257812</ele>
        <time>2020-01-19T13:16:46Z</time>
      </trkpt>
      <trkpt lat="45.72195" lon="4.54103">
        <ele>600</ele>
        <time>2020-01-19T13:16:53Z</time>
      </trkpt>
      <trkpt lat="45.72215" lon="4.54074">
        <ele>600.96118164062</ele>
        <time>2020-01-19T13:17:14Z</time>
      </trkpt>
      <trkpt lat="45.72227" lon="4.54069">
        <ele>600</ele>
        <time>2020-01-19T13:17:31Z</time>
      </trkpt>
      <trkpt lat="45.7223" lon="4.54068">
        <ele>602.40307617188</ele>
        <time>2020-01-19T13:17:33Z</time>
      </trkpt>
      <trkpt lat="45.72237" lon="4.54064">
        <ele>605.28735351562</ele>
        <time>2020-01-19T13:17:43Z</time>
      </trkpt>
      <trkpt lat="45.72238" lon="4.54064">
        <ele>605.76806640625</ele>
        <time>2020-01-19T13:17:44Z</time>
      </trkpt>
      <trkpt lat="45.72241" lon="4.54037">
        <ele>608.17138671875</ele>
        <time>2020-01-19T13:18:04Z</time>
      </trkpt>
      <trkpt lat="45.72219" lon="4.54013">
        <ele>610.09375</ele>
        <time>2020-01-19T13:18:24Z</time>
      </trkpt>
      <trkpt lat="45.72201" lon="4.53982">
        <ele>606.72924804688</ele>
        <time>2020-01-19T13:18:44Z</time>
      </trkpt>
      <trkpt lat="45.72184" lon="4.53942">
        <ele>607.2099609375</ele>
        <time>2020-01-19T13:19:07Z</time>
      </trkpt>
      <trkpt lat="45.72173" lon="4.53907">
        <ele>605.28735351562</ele>
        <time>2020-01-19T13:19:28Z</time>
      </trkpt>
      <trkpt lat="45.72156" lon="4.53849">
        <ele>602.40307617188</ele>
        <time>2020-01-19T13:20:01Z</time>
      </trkpt>
      <trkpt lat="45.72153" lon="4.53838">
        <ele>601.44189453125</ele>
        <time>2020-01-19T13:20:08Z</time>
      </trkpt>
      <trkpt lat="45.72147" lon="4.53822">
        <ele>599.51928710938</ele>
        <time>2020-01-19T13:20:17Z</time>
      </trkpt>
      <trkpt lat="45.72144" lon="4.53812">
        <ele>596.63549804688</ele>
        <time>2020-01-19T13:20:24Z</time>
      </trkpt>
      <trkpt lat="45.72143" lon="4.53811">
        <ele>596.63549804688</ele>
        <time>2020-01-19T13:20:25Z</time>
      </trkpt>
      <trkpt lat="45.72116" lon="4.5378">
        <ele>595.67407226562</ele>
        <time>2020-01-19T13:20:53Z</time>
      </trkpt>
      <trkpt lat="45.72083" lon="4.53759">
        <ele>596.15478515625</ele>
        <time>2020-01-19T13:21:19Z</time>
      </trkpt>
      <trkpt lat="45.72037" lon="4.53731">
        <ele>595.193359375</ele>
        <time>2020-01-19T13:21:57Z</time>
      </trkpt>
      <trkpt lat="45.72003" lon="4.5371">
        <ele>591.82885742188</ele>
        <time>2020-01-19T13:22:26Z</time>
      </trkpt>
      <trkpt lat="45.71985" lon="4.53696">
        <ele>592.3095703125</ele>
        <time>2020-01-19T13:22:44Z</time>
      </trkpt>
      <trkpt lat="45.71984" lon="4.53695">
        <ele>592.3095703125</ele>
        <time>2020-01-19T13:22:45Z</time>
      </trkpt>
      <trkpt lat="45.71977" lon="4.53692">
        <ele>591.34814453125</ele>
        <time>2020-01-19T13:22:50Z</time>
      </trkpt>
      <trkpt lat="45.71955" lon="4.53672">
        <ele>590.38696289062</ele>
        <time>2020-01-19T13:23:10Z</time>
      </trkpt>
      <trkpt lat="45.71954" lon="4.53671">
        <ele>590.38696289062</ele>
        <time>2020-01-19T13:23:11Z</time>
      </trkpt>
      <trkpt lat="45.7194" lon="4.53654">
        <ele>588.46435546875</ele>
        <time>2020-01-19T13:23:25Z</time>
      </trkpt>
      <trkpt lat="45.71926" lon="4.5364">
        <ele>587.50268554688</ele>
        <time>2020-01-19T13:23:39Z</time>
      </trkpt>
      <trkpt lat="45.71902" lon="4.53622">
        <ele>587.50268554688</ele>
        <time>2020-01-19T13:24:00Z</time>
      </trkpt>
      <trkpt lat="45.71887" lon="4.53608">
        <ele>588.46435546875</ele>
        <time>2020-01-19T13:24:13Z</time>
      </trkpt>
      <trkpt lat="45.71872" lon="4.53594">
        <ele>588.46435546875</ele>
        <time>2020-01-19T13:24:26Z</time>
      </trkpt>
      <trkpt lat="45.71852" lon="4.53577">
        <ele>587.02197265625</ele>
        <time>2020-01-19T13:24:45Z</time>
      </trkpt>
      <trkpt lat="45.71836" lon="4.53569">
        <ele>584.13818359375</ele>
        <time>2020-01-19T13:24:58Z</time>
      </trkpt>
      <trkpt lat="45.71818" lon="4.53562">
        <ele>583.65747070312</ele>
        <time>2020-01-19T13:25:13Z</time>
      </trkpt>
      <trkpt lat="45.71792" lon="4.53548">
        <ele>580.29296875</ele>
        <time>2020-01-19T13:25:33Z</time>
      </trkpt>
      <trkpt lat="45.71767" lon="4.53534">
        <ele>577.4091796875</ele>
        <time>2020-01-19T13:25:55Z</time>
      </trkpt>
      <trkpt lat="45.71755" lon="4.53526">
        <ele>574.04443359375</ele>
        <time>2020-01-19T13:26:07Z</time>
      </trkpt>
      <trkpt lat="45.71741" lon="4.53518">
        <ele>570.6796875</ele>
        <time>2020-01-19T13:26:20Z</time>
      </trkpt>
      <trkpt lat="45.71726" lon="4.53513">
        <ele>567.79565429688</ele>
        <time>2020-01-19T13:26:34Z</time>
      </trkpt>
      <trkpt lat="45.71711" lon="4.53507">
        <ele>565.87329101562</ele>
        <time>2020-01-19T13:26:46Z</time>
      </trkpt>
      <trkpt lat="45.717" lon="4.53499">
        <ele>563.95043945312</ele>
        <time>2020-01-19T13:26:57Z</time>
      </trkpt>
      <trkpt lat="45.71685" lon="4.53492">
        <ele>562.50854492188</ele>
        <time>2020-01-19T13:27:08Z</time>
      </trkpt>
      <trkpt lat="45.71669" lon="4.53484">
        <ele>561.06665039062</ele>
        <time>2020-01-19T13:27:20Z</time>
      </trkpt>
      <trkpt lat="45.71666" lon="4.53482">
        <ele>560.10522460938</ele>
        <time>2020-01-19T13:27:22Z</time>
      </trkpt>
      <trkpt lat="45.71661" lon="4.53481">
        <ele>559.62475585938</ele>
        <time>2020-01-19T13:27:25Z</time>
      </trkpt>
      <trkpt lat="45.71641" lon="4.53474">
        <ele>557.7021484375</ele>
        <time>2020-01-19T13:27:40Z</time>
      </trkpt>
      <trkpt lat="45.71629" lon="4.53468">
        <ele>556.26000976562</ele>
        <time>2020-01-19T13:27:51Z</time>
      </trkpt>
      <trkpt lat="45.71618" lon="4.53458">
        <ele>552.89526367188</ele>
        <time>2020-01-19T13:28:02Z</time>
      </trkpt>
      <trkpt lat="45.71604" lon="4.53447">
        <ele>550.4921875</ele>
        <time>2020-01-19T13:28:15Z</time>
      </trkpt>
      <trkpt lat="45.71601" lon="4.53443">
        <ele>550.01147460938</ele>
        <time>2020-01-19T13:28:18Z</time>
      </trkpt>
      <trkpt lat="45.71591" lon="4.53428">
        <ele>546.64685058594</ele>
        <time>2020-01-19T13:28:32Z</time>
      </trkpt>
      <trkpt lat="45.71579" lon="4.53405">
        <ele>543.28210449219</ele>
        <time>2020-01-19T13:28:50Z</time>
      </trkpt>
      <trkpt lat="45.71569" lon="4.5339">
        <ele>542.32092285156</ele>
        <time>2020-01-19T13:29:05Z</time>
      </trkpt>
      <trkpt lat="45.71552" lon="4.5338">
        <ele>542.32092285156</ele>
        <time>2020-01-19T13:29:20Z</time>
      </trkpt>
      <trkpt lat="45.71534" lon="4.5335">
        <ele>541.35949707031</ele>
        <time>2020-01-19T13:29:42Z</time>
      </trkpt>
      <trkpt lat="45.7152" lon="4.53334">
        <ele>541.35949707031</ele>
        <time>2020-01-19T13:30:01Z</time>
      </trkpt>
      <trkpt lat="45.71513" lon="4.53328">
        <ele>540.87890625</ele>
        <time>2020-01-19T13:30:14Z</time>
      </trkpt>
      <trkpt lat="45.71495" lon="4.53321">
        <ele>541.35949707031</ele>
        <time>2020-01-19T13:30:33Z</time>
      </trkpt>
      <trkpt lat="45.71474" lon="4.53308">
        <ele>541.84020996094</ele>
        <time>2020-01-19T13:30:59Z</time>
      </trkpt>
      <trkpt lat="45.71463" lon="4.53296">
        <ele>539.91760253906</ele>
        <time>2020-01-19T13:31:11Z</time>
      </trkpt>
      <trkpt lat="45.71458" lon="4.53289">
        <ele>538.95629882812</ele>
        <time>2020-01-19T13:31:17Z</time>
      </trkpt>
      <trkpt lat="45.71452" lon="4.53281">
        <ele>539.43688964844</ele>
        <time>2020-01-19T13:31:24Z</time>
      </trkpt>
      <trkpt lat="45.71428" lon="4.53252">
        <ele>537.51428222656</ele>
        <time>2020-01-19T13:31:48Z</time>
      </trkpt>
      <trkpt lat="45.71408" lon="4.53229">
        <ele>535.59155273438</ele>
        <time>2020-01-19T13:32:05Z</time>
      </trkpt>
      <trkpt lat="45.71396" lon="4.53214">
        <ele>534.63037109375</ele>
        <time>2020-01-19T13:32:19Z</time>
      </trkpt>
      <trkpt lat="45.7139" lon="4.53205">
        <ele>534.63037109375</ele>
        <time>2020-01-19T13:32:27Z</time>
      </trkpt>
      <trkpt lat="45.71373" lon="4.53192">
        <ele>534.14965820312</ele>
        <time>2020-01-19T13:32:40Z</time>
      </trkpt>
      <trkpt lat="45.71353" lon="4.53182">
        <ele>534.14965820312</ele>
        <time>2020-01-19T13:32:56Z</time>
      </trkpt>
      <trkpt lat="45.71333" lon="4.53178">
        <ele>534.14965820312</ele>
        <time>2020-01-19T13:33:09Z</time>
      </trkpt>
      <trkpt lat="45.71315" lon="4.53174">
        <ele>534.63037109375</ele>
        <time>2020-01-19T13:33:22Z</time>
      </trkpt>
      <trkpt lat="45.71299" lon="4.53158">
        <ele>535.11096191406</ele>
        <time>2020-01-19T13:33:35Z</time>
      </trkpt>
      <trkpt lat="45.71288" lon="4.53132">
        <ele>535.59155273438</ele>
        <time>2020-01-19T13:33:51Z</time>
      </trkpt>
      <trkpt lat="45.71279" lon="4.53104">
        <ele>534.63037109375</ele>
        <time>2020-01-19T13:34:06Z</time>
      </trkpt>
      <trkpt lat="45.71275" lon="4.5308">
        <ele>533.18835449219</ele>
        <time>2020-01-19T13:34:18Z</time>
      </trkpt>
      <trkpt lat="45.71271" lon="4.53055">
        <ele>533.6689453125</ele>
        <time>2020-01-19T13:34:31Z</time>
      </trkpt>
      <trkpt lat="45.71269" lon="4.53019">
        <ele>532.22705078125</ele>
        <time>2020-01-19T13:34:48Z</time>
      </trkpt>
      <trkpt lat="45.71268" lon="4.53002">
        <ele>534.14965820312</ele>
        <time>2020-01-19T13:34:57Z</time>
      </trkpt>
      <trkpt lat="45.71257" lon="4.52972">
        <ele>533.6689453125</ele>
        <time>2020-01-19T13:35:15Z</time>
      </trkpt>
      <trkpt lat="45.71249" lon="4.52951">
        <ele>532.70776367188</ele>
        <time>2020-01-19T13:35:27Z</time>
      </trkpt>
      <trkpt lat="45.71241" lon="4.52925">
        <ele>530.30444335938</ele>
        <time>2020-01-19T13:35:43Z</time>
      </trkpt>
      <trkpt lat="45.71236" lon="4.52909">
        <ele>528.86254882812</ele>
        <time>2020-01-19T13:35:53Z</time>
      </trkpt>
      <trkpt lat="45.71229" lon="4.52893">
        <ele>525.97839355469</ele>
        <time>2020-01-19T13:36:04Z</time>
      </trkpt>
      <trkpt lat="45.71222" lon="4.52879">
        <ele>523.5751953125</ele>
        <time>2020-01-19T13:36:12Z</time>
      </trkpt>
      <trkpt lat="45.71216" lon="4.52858">
        <ele>521.17199707031</ele>
        <time>2020-01-19T13:36:27Z</time>
      </trkpt>
      <trkpt lat="45.71215" lon="4.52848">
        <ele>520.21057128906</ele>
        <time>2020-01-19T13:36:44Z</time>
      </trkpt>
      <trkpt lat="45.71215" lon="4.52841">
        <ele>520.21057128906</ele>
        <time>2020-01-19T13:37:24Z</time>
      </trkpt>
      <trkpt lat="45.71213" lon="4.52833">
        <ele>520.21057128906</ele>
        <time>2020-01-19T13:37:49Z</time>
      </trkpt>
      <trkpt lat="45.71215" lon="4.52851">
        <ele>521.17199707031</ele>
        <time>2020-01-19T13:38:04Z</time>
      </trkpt>
      <trkpt lat="45.71223" lon="4.52875">
        <ele>524.53649902344</ele>
        <time>2020-01-19T13:38:21Z</time>
      </trkpt>
      <trkpt lat="45.71228" lon="4.52879">
        <ele>525.97839355469</ele>
        <time>2020-01-19T13:38:27Z</time>
      </trkpt>
      <trkpt lat="45.71248" lon="4.52908">
        <ele>529.82373046875</ele>
        <time>2020-01-19T13:38:49Z</time>
      </trkpt>
      <trkpt lat="45.71259" lon="4.52934">
        <ele>532.22705078125</ele>
        <time>2020-01-19T13:39:06Z</time>
      </trkpt>
      <trkpt lat="45.71267" lon="4.52957">
        <ele>534.63037109375</ele>
        <time>2020-01-19T13:39:21Z</time>
      </trkpt>
      <trkpt lat="45.71261" lon="4.52955">
        <ele>535.11096191406</ele>
        <time>2020-01-19T13:39:23Z</time>
      </trkpt>
      <trkpt lat="45.71253" lon="4.52944">
        <ele>535.59155273438</ele>
        <time>2020-01-19T13:39:30Z</time>
      </trkpt>
      <trkpt lat="45.71233" lon="4.52917">
        <ele>535.59155273438</ele>
        <time>2020-01-19T13:39:51Z</time>
      </trkpt>
      <trkpt lat="45.71211" lon="4.529">
        <ele>536.55310058594</ele>
        <time>2020-01-19T13:40:06Z</time>
      </trkpt>
      <trkpt lat="45.71199" lon="4.52887">
        <ele>538.47570800781</ele>
        <time>2020-01-19T13:40:18Z</time>
      </trkpt>
      <trkpt lat="45.71176" lon="4.52862">
        <ele>537.99499511719</ele>
        <time>2020-01-19T13:40:39Z</time>
      </trkpt>
      <trkpt lat="45.71152" lon="4.52842">
        <ele>540.39831542969</ele>
        <time>2020-01-19T13:40:57Z</time>
      </trkpt>
      <trkpt lat="45.71135" lon="4.52824">
        <ele>540.87890625</ele>
        <time>2020-01-19T13:41:13Z</time>
      </trkpt>
      <trkpt lat="45.71114" lon="4.52802">
        <ele>541.35949707031</ele>
        <time>2020-01-19T13:41:33Z</time>
      </trkpt>
      <trkpt lat="45.71087" lon="4.52779">
        <ele>541.84020996094</ele>
        <time>2020-01-19T13:41:58Z</time>
      </trkpt>
      <trkpt lat="45.7107" lon="4.5277">
        <ele>543.28210449219</ele>
        <time>2020-01-19T13:42:13Z</time>
      </trkpt>
      <trkpt lat="45.7105" lon="4.52765">
        <ele>544.24365234375</ele>
        <time>2020-01-19T13:42:29Z</time>
      </trkpt>
      <trkpt lat="45.71032" lon="4.52761">
        <ele>543.76281738281</ele>
        <time>2020-01-19T13:42:41Z</time>
      </trkpt>
      <trkpt lat="45.71029" lon="4.52761">
        <ele>543.76281738281</ele>
        <time>2020-01-19T13:42:44Z</time>
      </trkpt>
      <trkpt lat="45.71005" lon="4.52754">
        <ele>543.76281738281</ele>
        <time>2020-01-19T13:43:01Z</time>
      </trkpt>
      <trkpt lat="45.70994" lon="4.52768">
        <ele>543.28210449219</ele>
        <time>2020-01-19T13:43:13Z</time>
      </trkpt>
      <trkpt lat="45.70992" lon="4.52802">
        <ele>542.32092285156</ele>
        <time>2020-01-19T13:43:29Z</time>
      </trkpt>
      <trkpt lat="45.70991" lon="4.52809">
        <ele>542.32092285156</ele>
        <time>2020-01-19T13:43:34Z</time>
      </trkpt>
      <trkpt lat="45.70991" lon="4.52819">
        <ele>541.84020996094</ele>
        <time>2020-01-19T13:43:39Z</time>
      </trkpt>
      <trkpt lat="45.70985" lon="4.52851">
        <ele>542.32092285156</ele>
        <time>2020-01-19T13:43:55Z</time>
      </trkpt>
      <trkpt lat="45.70983" lon="4.52858">
        <ele>541.84020996094</ele>
        <time>2020-01-19T13:44:00Z</time>
      </trkpt>
      <trkpt lat="45.70972" lon="4.52879">
        <ele>539.91760253906</ele>
        <time>2020-01-19T13:44:13Z</time>
      </trkpt>
      <trkpt lat="45.70962" lon="4.52911">
        <ele>538.47570800781</ele>
        <time>2020-01-19T13:44:31Z</time>
      </trkpt>
      <trkpt lat="45.70955" lon="4.52943">
        <ele>539.43688964844</ele>
        <time>2020-01-19T13:44:48Z</time>
      </trkpt>
      <trkpt lat="45.70941" lon="4.52941">
        <ele>539.43688964844</ele>
        <time>2020-01-19T13:45:03Z</time>
      </trkpt>
      <trkpt lat="45.70933" lon="4.52932">
        <ele>540.87890625</ele>
        <time>2020-01-19T13:45:08Z</time>
      </trkpt>
      <trkpt lat="45.70923" lon="4.52906">
        <ele>539.43688964844</ele>
        <time>2020-01-19T13:45:23Z</time>
      </trkpt>
      <trkpt lat="45.70923" lon="4.52904">
        <ele>538.95629882812</ele>
        <time>2020-01-19T13:45:24Z</time>
      </trkpt>
      <trkpt lat="45.70924" lon="4.52895">
        <ele>537.51428222656</ele>
        <time>2020-01-19T13:45:28Z</time>
      </trkpt>
      <trkpt lat="45.70924" lon="4.52873">
        <ele>537.99499511719</ele>
        <time>2020-01-19T13:45:39Z</time>
      </trkpt>
      <trkpt lat="45.70917" lon="4.52858">
        <ele>538.47570800781</ele>
        <time>2020-01-19T13:45:46Z</time>
      </trkpt>
      <trkpt lat="45.70892" lon="4.5283">
        <ele>539.43688964844</ele>
        <time>2020-01-19T13:46:06Z</time>
      </trkpt>
      <trkpt lat="45.70872" lon="4.52814">
        <ele>539.91760253906</ele>
        <time>2020-01-19T13:46:22Z</time>
      </trkpt>
      <trkpt lat="45.70869" lon="4.52785">
        <ele>541.35949707031</ele>
        <time>2020-01-19T13:46:38Z</time>
      </trkpt>
      <trkpt lat="45.70856" lon="4.5274">
        <ele>540.87890625</ele>
        <time>2020-01-19T13:47:01Z</time>
      </trkpt>
      <trkpt lat="45.7085" lon="4.52713">
        <ele>542.80151367188</ele>
        <time>2020-01-19T13:47:17Z</time>
      </trkpt>
      <trkpt lat="45.70847" lon="4.52702">
        <ele>543.28210449219</ele>
        <time>2020-01-19T13:47:22Z</time>
      </trkpt>
      <trkpt lat="45.70838" lon="4.52675">
        <ele>543.76281738281</ele>
        <time>2020-01-19T13:47:38Z</time>
      </trkpt>
      <trkpt lat="45.70839" lon="4.52643">
        <ele>544.72424316406</ele>
        <time>2020-01-19T13:47:58Z</time>
      </trkpt>
      <trkpt lat="45.70834" lon="4.526">
        <ele>546.16625976562</ele>
        <time>2020-01-19T13:48:20Z</time>
      </trkpt>
      <trkpt lat="45.70823" lon="4.5258">
        <ele>545.685546875</ele>
        <time>2020-01-19T13:48:31Z</time>
      </trkpt>
      <trkpt lat="45.70824" lon="4.52567">
        <ele>546.16625976562</ele>
        <time>2020-01-19T13:48:40Z</time>
      </trkpt>
      <trkpt lat="45.70846" lon="4.52548">
        <ele>543.28210449219</ele>
        <time>2020-01-19T13:48:54Z</time>
      </trkpt>
      <trkpt lat="45.70852" lon="4.52533">
        <ele>542.80151367188</ele>
        <time>2020-01-19T13:49:05Z</time>
      </trkpt>
      <trkpt lat="45.70853" lon="4.52505">
        <ele>540.39831542969</ele>
        <time>2020-01-19T13:49:19Z</time>
      </trkpt>
      <trkpt lat="45.70857" lon="4.52483">
        <ele>539.91760253906</ele>
        <time>2020-01-19T13:49:33Z</time>
      </trkpt>
      <trkpt lat="45.7086" lon="4.52464">
        <ele>538.95629882812</ele>
        <time>2020-01-19T13:49:44Z</time>
      </trkpt>
      <trkpt lat="45.70861" lon="4.5246">
        <ele>538.47570800781</ele>
        <time>2020-01-19T13:49:55Z</time>
      </trkpt>
      <trkpt lat="45.70857" lon="4.52447">
        <ele>538.47570800781</ele>
        <time>2020-01-19T13:50:06Z</time>
      </trkpt>
      <trkpt lat="45.70855" lon="4.52446">
        <ele>537.99499511719</ele>
        <time>2020-01-19T13:50:08Z</time>
      </trkpt>
      <trkpt lat="45.70834" lon="4.52452">
        <ele>537.03369140625</ele>
        <time>2020-01-19T13:50:26Z</time>
      </trkpt>
      <trkpt lat="45.70833" lon="4.52455">
        <ele>537.03369140625</ele>
        <time>2020-01-19T13:50:29Z</time>
      </trkpt>
    </trkseg>
  </trk>
</gpx>